Aviation Digital Data Service (ADDS)

Output produced by METARs form (2335 UTC 20 January 2019)
found at http://www.aviationweather.gov/metar/data/
 
METAR text: KBTV 202329Z 35014G25KT 3SM -SN FEW020 OVC028 M17/M21 A2973 RMK AO2 P0000 T11721206 $
Conditions at: KBTV (BURLINGTON , VT, US) observed 2329 UTC 20 January 2019
Temperature: -17.2°C ( 1°F)
Dewpoint: -20.6°C (-5°F) [RH = 75%]
Pressure (altimeter): 29.73 inches Hg (1006.9 mb)
Winds: from the N (350 degrees) at 16 MPH (14 knots; 7.2 m/s)
gusting to 29 MPH (25 knots; 12.9 m/s)
Visibility: 3 miles ( 5 km)
Ceiling: 2800 feet AGL
Clouds: few clouds at 2000 feet AGL
overcast cloud deck at 2800 feet AGL
Weather: -SN  (light snow)
SOME DATA ABOVE MAY BE INACCURATE!!!
"$" is an indication the sensor requires maintenance

METAR text: KBTV 202319Z 33018G25KT 2 1/2SM -SN FEW020 BKN032 OVC110 M17/M21 A2972 RMK AO2 P0000 T11721206 $
Conditions at: KBTV (BURLINGTON , VT, US) observed 2319 UTC 20 January 2019
Temperature: -17.2°C ( 1°F)
Dewpoint: -20.6°C (-5°F) [RH = 75%]
Pressure (altimeter): 29.72 inches Hg (1006.5 mb)
Winds: from the NNW (330 degrees) at 21 MPH (18 knots; 9.3 m/s)
gusting to 29 MPH (25 knots; 12.9 m/s)
Visibility: 2.50 miles (4.02 km)
Ceiling: 3200 feet AGL
Clouds: few clouds at 2000 feet AGL
broken clouds at 3200 feet AGL
overcast cloud deck at 11000 feet AGL
Weather: -SN  (light snow)
SOME DATA ABOVE MAY BE INACCURATE!!!
"$" is an indication the sensor requires maintenance

METAR text: KBTV 202254Z 33013KT 3SM -SN BKN028 OVC075 M17/M21 A2970 RMK AO2 SLP068 P0000 T11721206 $
Conditions at: KBTV (BURLINGTON , VT, US) observed 2254 UTC 20 January 2019
Temperature: -17.2°C ( 1°F)
Dewpoint: -20.6°C (-5°F) [RH = 75%]
Pressure (altimeter): 29.70 inches Hg (1005.8 mb)
[Sea-level pressure: 1006.8 mb]
Winds: from the NNW (330 degrees) at 15 MPH (13 knots; 6.7 m/s)
Visibility: 3 miles ( 5 km)
Ceiling: 2800 feet AGL
Clouds: broken clouds at 2800 feet AGL
overcast cloud deck at 7500 feet AGL
Weather: -SN  (light snow)
SOME DATA ABOVE MAY BE INACCURATE!!!
"$" is an indication the sensor requires maintenance

METAR text: KBTV 202252Z 34014KT 3SM -SN BKN028 OVC075 M17/M21 A2970 RMK AO2 P0000 $
Conditions at: KBTV (BURLINGTON , VT, US) observed 2252 UTC 20 January 2019
Temperature: -17.0°C ( 1°F)
Dewpoint: -21.0°C (-6°F) [RH = 71%]
Pressure (altimeter): 29.70 inches Hg (1005.8 mb)
Winds: from the NNW (340 degrees) at 16 MPH (14 knots; 7.2 m/s)
Visibility: 3 miles ( 5 km)
Ceiling: 2800 feet AGL
Clouds: broken clouds at 2800 feet AGL
overcast cloud deck at 7500 feet AGL
Weather: -SN  (light snow)
SOME DATA ABOVE MAY BE INACCURATE!!!
"$" is an indication the sensor requires maintenance

METAR text: KBTV 202230Z 34015KT 3SM -SN FEW034 OVC075 M17/M21 A2969 RMK AO2 P0000 T11721206 $
Conditions at: KBTV (BURLINGTON , VT, US) observed 2230 UTC 20 January 2019
Temperature: -17.2°C ( 1°F)
Dewpoint: -20.6°C (-5°F) [RH = 75%]
Pressure (altimeter): 29.69 inches Hg (1005.5 mb)
Winds: from the NNW (340 degrees) at 17 MPH (15 knots; 7.7 m/s)
Visibility: 3 miles ( 5 km)
Ceiling: 7500 feet AGL
Clouds: few clouds at 3400 feet AGL
overcast cloud deck at 7500 feet AGL
Weather: -SN  (light snow)
SOME DATA ABOVE MAY BE INACCURATE!!!
"$" is an indication the sensor requires maintenance

METAR text: KBTV 202154Z COR 34016G25KT 2SM -SN BLSN OVC037 M17/M21 A2968 RMK AO2 SLP059 P0000 T11721211 $
Conditions at: KBTV (BURLINGTON , VT, US) observed 2154 UTC 20 January 2019
Temperature: -17.2°C ( 1°F)
Dewpoint: -21.1°C (-6°F) [RH = 72%]
Pressure (altimeter): 29.68 inches Hg (1005.2 mb)
[Sea-level pressure: 1005.9 mb]
Winds: from the NNW (340 degrees) at 18 MPH (16 knots; 8.2 m/s)
gusting to 29 MPH (25 knots; 12.9 m/s)
Visibility: 2.00 miles (3.22 km)
Ceiling: 3700 feet AGL
Clouds: overcast cloud deck at 3700 feet AGL
Weather: -SN BLSN  (light snow, blowing snow)
SOME DATA ABOVE MAY BE INACCURATE!!!
"$" is an indication the sensor requires maintenance

METAR text: KBTV 202119Z 34012G22KT 1 1/2SM -SN BLSN FZFG FEW020 OVC031 M17/M21 A2965 RMK AO2 P0000 T11671206 $
Conditions at: KBTV (BURLINGTON , VT, US) observed 2119 UTC 20 January 2019
Temperature: -16.7°C ( 2°F)
Dewpoint: -20.6°C (-5°F) [RH = 72%]
Pressure (altimeter): 29.65 inches Hg (1004.1 mb)
Winds: from the NNW (340 degrees) at 14 MPH (12 knots; 6.2 m/s)
gusting to 25 MPH (22 knots; 11.3 m/s)
Visibility: 1.50 miles (2.41 km)
Ceiling: 3100 feet AGL
Clouds: few clouds at 2000 feet AGL
overcast cloud deck at 3100 feet AGL
Weather: -SN BLSN FZFG  (light snow, blowing snow, freezing fog)
SOME DATA ABOVE MAY BE INACCURATE!!!
"$" is an indication the sensor requires maintenance

METAR text: KBTV 202054Z 34015G21KT 1 3/4SM -SN BLSN FZFG FEW020 OVC029 M17/M21 A2963 RMK AO2 SLP044 P0000 60001 T11671206 53024 $
Conditions at: KBTV (BURLINGTON , VT, US) observed 2054 UTC 20 January 2019
Temperature: -16.7°C ( 2°F)
Dewpoint: -20.6°C (-5°F) [RH = 72%]
Pressure (altimeter): 29.63 inches Hg (1003.5 mb)
[Sea-level pressure: 1004.4 mb]
Winds: from the NNW (340 degrees) at 17 MPH (15 knots; 7.7 m/s)
gusting to 24 MPH (21 knots; 10.8 m/s)
Visibility: 1.75 miles (2.82 km)
Ceiling: 2900 feet AGL
Clouds: few clouds at 2000 feet AGL
overcast cloud deck at 2900 feet AGL
Weather: -SN BLSN FZFG  (light snow, blowing snow, freezing fog)
SOME DATA ABOVE MAY BE INACCURATE!!!
"$" is an indication the sensor requires maintenance

METAR text: KBTV 202030Z 33015G21KT 1SM R15/5500VP6000FT -SN BLSN FZFG BKN029 OVC037 M17/M21 A2963 RMK AO2 P0000 T11671206 $
Conditions at: KBTV (BURLINGTON , VT, US) observed 2030 UTC 20 January 2019
Temperature: -16.7°C ( 2°F)
Dewpoint: -20.6°C (-5°F) [RH = 72%]
Pressure (altimeter): 29.63 inches Hg (1003.5 mb)
Winds: from the NNW (330 degrees) at 17 MPH (15 knots; 7.7 m/s)
gusting to 24 MPH (21 knots; 10.8 m/s)
Visibility: 1.00 miles (1.61 km)
Ceiling: 2900 feet AGL
Clouds: broken clouds at 2900 feet AGL
overcast cloud deck at 3700 feet AGL
Weather: -SN BLSN FZFG  (light snow, blowing snow, freezing fog)
SOME DATA ABOVE MAY BE INACCURATE!!!
"$" is an indication the sensor requires maintenance

METAR text: KBTV 201954Z 34013G19KT 2SM R15/6000VP6000FT -SN BLSN FZFG SCT018 BKN029 OVC038 M17/M20 A2960 RMK AO2 TWR VIS 3 SLP034 P0000 T11671200 $
Conditions at: KBTV (BURLINGTON , VT, US) observed 1954 UTC 20 January 2019
Temperature: -16.7°C ( 2°F)
Dewpoint: -20.0°C (-4°F) [RH = 76%]
Pressure (altimeter): 29.60 inches Hg (1002.5 mb)
[Sea-level pressure: 1003.4 mb]
Winds: from the NNW (340 degrees) at 15 MPH (13 knots; 6.7 m/s)
gusting to 22 MPH (19 knots; 9.8 m/s)
Visibility: 2.00 miles (3.22 km)
Ceiling: 2900 feet AGL
Clouds: scattered clouds at 1800 feet AGL
broken clouds at 2900 feet AGL
overcast cloud deck at 3800 feet AGL
Weather: -SN BLSN FZFG  (light snow, blowing snow, freezing fog)
SOME DATA ABOVE MAY BE INACCURATE!!!
"$" is an indication the sensor requires maintenance

METAR text: KBTV 201951Z 33012G19KT 2 1/2SM R15/5500VP6000FT -SN BLSN FZFG FEW018 BKN029 OVC038 M17/M20 A2960 RMK AO2 TWR VIS 3 P0000 $
Conditions at: KBTV (BURLINGTON , VT, US) observed 1951 UTC 20 January 2019
Temperature: -17.0°C ( 1°F)
Dewpoint: -20.0°C (-4°F) [RH = 77%]
Pressure (altimeter): 29.60 inches Hg (1002.5 mb)
Winds: from the NNW (330 degrees) at 14 MPH (12 knots; 6.2 m/s)
gusting to 22 MPH (19 knots; 9.8 m/s)
Visibility: 2.50 miles (4.02 km)
Ceiling: 2900 feet AGL
Clouds: few clouds at 1800 feet AGL
broken clouds at 2900 feet AGL
overcast cloud deck at 3800 feet AGL
Weather: -SN BLSN FZFG  (light snow, blowing snow, freezing fog)
SOME DATA ABOVE MAY BE INACCURATE!!!
"$" is an indication the sensor requires maintenance

METAR text: KBTV 201936Z 35016G23KT 1SM R15/2800VP6000FT -SN BLSN FZFG BKN020 OVC033 M17/M20 A2958 RMK AO2 P0000 T11671200 $
Conditions at: KBTV (BURLINGTON , VT, US) observed 1936 UTC 20 January 2019
Temperature: -16.7°C ( 2°F)
Dewpoint: -20.0°C (-4°F) [RH = 76%]
Pressure (altimeter): 29.58 inches Hg (1001.8 mb)
Winds: from the N (350 degrees) at 18 MPH (16 knots; 8.2 m/s)
gusting to 26 MPH (23 knots; 11.8 m/s)
Visibility: 1.00 miles (1.61 km)
Ceiling: 2000 feet AGL
Clouds: broken clouds at 2000 feet AGL
overcast cloud deck at 3300 feet AGL
Weather: -SN BLSN FZFG  (light snow, blowing snow, freezing fog)
SOME DATA ABOVE MAY BE INACCURATE!!!
"$" is an indication the sensor requires maintenance

METAR text: KBTV 201908Z 34013G22KT 3/4SM R15/2800V6000FT -SN BLSN FZFG VV017 M17/M20 A2957 RMK AO2 P0000 T11671200 $
Conditions at: KBTV (BURLINGTON , VT, US) observed 1908 UTC 20 January 2019
Temperature: -16.7°C ( 2°F)
Dewpoint: -20.0°C (-4°F) [RH = 76%]
Pressure (altimeter): 29.57 inches Hg (1001.4 mb)
Winds: from the NNW (340 degrees) at 15 MPH (13 knots; 6.7 m/s)
gusting to 25 MPH (22 knots; 11.3 m/s)
Visibility: 0.75 miles (1.21 km)
Ceiling: indefinite ceiling with vertical visibility of 1700 feet AGL
Clouds: obscured sky
Weather: -SN BLSN FZFG  (light snow, blowing snow, freezing fog)
SOME DATA ABOVE MAY BE INACCURATE!!!
"$" is an indication the sensor requires maintenance

METAR text: KBTV 201905Z 34016G22KT 1SM R15/4000V6000FT -SN BLSN FZFG VV015 M17/M20 A2957 RMK AO2 P0000 T11671200 $
Conditions at: KBTV (BURLINGTON , VT, US) observed 1905 UTC 20 January 2019
Temperature: -16.7°C ( 2°F)
Dewpoint: -20.0°C (-4°F) [RH = 76%]
Pressure (altimeter): 29.57 inches Hg (1001.4 mb)
Winds: from the NNW (340 degrees) at 18 MPH (16 knots; 8.2 m/s)
gusting to 25 MPH (22 knots; 11.3 m/s)
Visibility: 1.00 miles (1.61 km)
Ceiling: indefinite ceiling with vertical visibility of 1500 feet AGL
Clouds: obscured sky
Weather: -SN BLSN FZFG  (light snow, blowing snow, freezing fog)
SOME DATA ABOVE MAY BE INACCURATE!!!
"$" is an indication the sensor requires maintenance

METAR text: KBTV 201854Z 34014G20KT 1/2SM R15/2800V3500FT SN BLSN FZFG VV011 M17/M20 A2957 RMK AO2 PK WND 33027/1804 SLP021 VIS 1/4V1/2 SNINCR 1/18 P0001 T11671200 $
Conditions at: KBTV (BURLINGTON , VT, US) observed 1854 UTC 20 January 2019
Temperature: -16.7°C ( 2°F)
Dewpoint: -20.0°C (-4°F) [RH = 76%]
Pressure (altimeter): 29.57 inches Hg (1001.4 mb)
[Sea-level pressure: 1002.1 mb]
Winds: from the NNW (340 degrees) at 16 MPH (14 knots; 7.2 m/s)
gusting to 23 MPH (20 knots; 10.3 m/s)
Visibility: 0.50 miles (0.80 km)
Ceiling: indefinite ceiling with vertical visibility of 1100 feet AGL
Clouds: obscured sky
Weather: SN BLSN FZFG  (moderate snow, blowing snow, freezing fog)
SOME DATA ABOVE MAY BE INACCURATE!!!
"$" is an indication the sensor requires maintenance

METAR text: KBTV 201824Z 34015G26KT 1/4SM R15/1800V2800FT +SN BLSN FZFG VV011 M17/M20 A2957 RMK AO2 PK WND 33027/1804 VIS 1/4V1/2 P0000 T11721200 $
Conditions at: KBTV (BURLINGTON , VT, US) observed 1824 UTC 20 January 2019
Temperature: -17.2°C ( 1°F)
Dewpoint: -20.0°C (-4°F) [RH = 79%]
Pressure (altimeter): 29.57 inches Hg (1001.4 mb)
Winds: from the NNW (340 degrees) at 17 MPH (15 knots; 7.7 m/s)
gusting to 30 MPH (26 knots; 13.4 m/s)
Visibility: 0.25 miles (0.40 km)
Ceiling: indefinite ceiling with vertical visibility of 1100 feet AGL
Clouds: obscured sky
Weather: +SN BLSN FZFG  (heavy snow, blowing snow, freezing fog)
SOME DATA ABOVE MAY BE INACCURATE!!!
"$" is an indication the sensor requires maintenance

METAR text: KBTV 201820Z 33017G22KT 1/4SM R15/1800V3000FT +SN FZFG VV011 M17/M20 A2957 RMK AO2 PK WND 33027/1804 P0000 T11721200 $
Conditions at: KBTV (BURLINGTON , VT, US) observed 1820 UTC 20 January 2019
Temperature: -17.2°C ( 1°F)
Dewpoint: -20.0°C (-4°F) [RH = 79%]
Pressure (altimeter): 29.57 inches Hg (1001.4 mb)
Winds: from the NNW (330 degrees) at 20 MPH (17 knots; 8.7 m/s)
gusting to 25 MPH (22 knots; 11.3 m/s)
Visibility: 0.25 miles (0.40 km)
Ceiling: indefinite ceiling with vertical visibility of 1100 feet AGL
Clouds: obscured sky
Weather: +SN FZFG  (heavy snow, freezing fog)
SOME DATA ABOVE MAY BE INACCURATE!!!
"$" is an indication the sensor requires maintenance

METAR text: KBTV 201754Z 33017G22KT 1/2SM R15/1600V3500FT SN FZFG VV010 M17/M20 A2956 RMK AO2 SLP019 VIS 1/8V1/2 SNINCR 1/18 4/018 P0000 60002 T11721200 11150 21194 55011 $
Conditions at: KBTV (BURLINGTON , VT, US) observed 1754 UTC 20 January 2019
Temperature: -17.2°C ( 1°F)
Dewpoint: -20.0°C (-4°F) [RH = 79%]
Pressure (altimeter): 29.56 inches Hg (1001.1 mb)
[Sea-level pressure: 1001.9 mb]
Winds: from the NNW (330 degrees) at 20 MPH (17 knots; 8.7 m/s)
gusting to 25 MPH (22 knots; 11.3 m/s)
Visibility: 0.50 miles (0.80 km)
Ceiling: indefinite ceiling with vertical visibility of 1000 feet AGL
Clouds: obscured sky
Weather: SN FZFG  (moderate snow, freezing fog)
SOME DATA ABOVE MAY BE INACCURATE!!!
"$" is an indication the sensor requires maintenance

METAR text: KBTV 201735Z 33012KT 1/8SM R15/1600V2400FT +SN FZFG VV008 M17/M19 A2956 RMK AO2 VIS 1/8V1/2 P0000 T11671194 $
Conditions at: KBTV (BURLINGTON , VT, US) observed 1735 UTC 20 January 2019
Temperature: -16.7°C ( 2°F)
Dewpoint: -19.4°C (-3°F) [RH = 80%]
Pressure (altimeter): 29.56 inches Hg (1001.1 mb)
Winds: from the NNW (330 degrees) at 14 MPH (12 knots; 6.2 m/s)
Visibility: 0.13 miles (0.21 km)
Ceiling: indefinite ceiling with vertical visibility of 800 feet AGL
Clouds: obscured sky
Weather: +SN FZFG  (heavy snow, freezing fog)
SOME DATA ABOVE MAY BE INACCURATE!!!
"$" is an indication the sensor requires maintenance

METAR text: KBTV 201732Z 34014KT 1/4SM R15/1600V2400FT +SN FZFG VV008 M17/M19 A2955 RMK AO2 VIS 1/8V1/2 P0000 T11671194 $
Conditions at: KBTV (BURLINGTON , VT, US) observed 1732 UTC 20 January 2019
Temperature: -16.7°C ( 2°F)
Dewpoint: -19.4°C (-3°F) [RH = 80%]
Pressure (altimeter): 29.55 inches Hg (1000.8 mb)
Winds: from the NNW (340 degrees) at 16 MPH (14 knots; 7.2 m/s)
Visibility: 0.25 miles (0.40 km)
Ceiling: indefinite ceiling with vertical visibility of 800 feet AGL
Clouds: obscured sky
Weather: +SN FZFG  (heavy snow, freezing fog)
SOME DATA ABOVE MAY BE INACCURATE!!!
"$" is an indication the sensor requires maintenance

METAR text: KBTV 201729Z 34013KT 1/8SM R15/1600V2400FT +SN FZFG VV007 M17/M19 A2955 RMK AO2 VIS 1/8V1/2 P0000 T11671194 $
Conditions at: KBTV (BURLINGTON , VT, US) observed 1729 UTC 20 January 2019
Temperature: -16.7°C ( 2°F)
Dewpoint: -19.4°C (-3°F) [RH = 80%]
Pressure (altimeter): 29.55 inches Hg (1000.8 mb)
Winds: from the NNW (340 degrees) at 15 MPH (13 knots; 6.7 m/s)
Visibility: 0.13 miles (0.21 km)
Ceiling: indefinite ceiling with vertical visibility of 700 feet AGL
Clouds: obscured sky
Weather: +SN FZFG  (heavy snow, freezing fog)
SOME DATA ABOVE MAY BE INACCURATE!!!
"$" is an indication the sensor requires maintenance

METAR text: KBTV 201714Z COR 34013KT 1/8SM R15/1600V2600FT +SN FZFG VV007 M17/M19 A2956 RMK AO2 VIS 1/8V1/2 P0000 T11671194 $
Conditions at: KBTV (BURLINGTON , VT, US) observed 1714 UTC 20 January 2019
Temperature: -16.7°C ( 2°F)
Dewpoint: -19.4°C (-3°F) [RH = 80%]
Pressure (altimeter): 29.56 inches Hg (1001.1 mb)
Winds: from the NNW (340 degrees) at 15 MPH (13 knots; 6.7 m/s)
Visibility: 0.13 miles (0.21 km)
Ceiling: indefinite ceiling with vertical visibility of 700 feet AGL
Clouds: obscured sky
Weather: +SN FZFG  (heavy snow, freezing fog)
SOME DATA ABOVE MAY BE INACCURATE!!!
"$" is an indication the sensor requires maintenance

METAR text: KBTV 201708Z 34013KT 1/4SM R15/2000V2600FT +SN FZFG VV007 M17/M19 A2955 RMK AO2 VIS 1/8V1/2 P0000 T11671189 $
Conditions at: KBTV (BURLINGTON , VT, US) observed 1708 UTC 20 January 2019
Temperature: -16.7°C ( 2°F)
Dewpoint: -18.9°C (-2°F) [RH = 83%]
Pressure (altimeter): 29.55 inches Hg (1000.8 mb)
Winds: from the NNW (340 degrees) at 15 MPH (13 knots; 6.7 m/s)
Visibility: 0.25 miles (0.40 km)
Ceiling: indefinite ceiling with vertical visibility of 700 feet AGL
Clouds: obscured sky
Weather: +SN FZFG  (heavy snow, freezing fog)
SOME DATA ABOVE MAY BE INACCURATE!!!
"$" is an indication the sensor requires maintenance

METAR text: KBTV 201654Z 34013KT 1/8SM R15/1600V2600FT +SN FZFG VV007 M16/M19 A2955 RMK AO2 SLP014 VIS 1/8V1/4 SNINCR 2/17 P0000 T11611189 $
Conditions at: KBTV (BURLINGTON , VT, US) observed 1654 UTC 20 January 2019
Temperature: -16.1°C ( 3°F)
Dewpoint: -18.9°C (-2°F) [RH = 79%]
Pressure (altimeter): 29.55 inches Hg (1000.8 mb)
[Sea-level pressure: 1001.4 mb]
Winds: from the NNW (340 degrees) at 15 MPH (13 knots; 6.7 m/s)
Visibility: 0.13 miles (0.21 km)
Ceiling: indefinite ceiling with vertical visibility of 700 feet AGL
Clouds: obscured sky
Weather: +SN FZFG  (heavy snow, freezing fog)
SOME DATA ABOVE MAY BE INACCURATE!!!
"$" is an indication the sensor requires maintenance

METAR text: KBTV 201650Z 34010KT 1/8SM R15/1600V2600FT +SN FZFG VV007 M16/M19 A2956 RMK AO2 VIS 1/8V1/2 P0000 $
Conditions at: KBTV (BURLINGTON , VT, US) observed 1650 UTC 20 January 2019
Temperature: -16.0°C ( 3°F)
Dewpoint: -19.0°C (-2°F) [RH = 78%]
Pressure (altimeter): 29.56 inches Hg (1001.1 mb)
Winds: from the NNW (340 degrees) at 12 MPH (10 knots; 5.1 m/s)
Visibility: 0.13 miles (0.21 km)
Ceiling: indefinite ceiling with vertical visibility of 700 feet AGL
Clouds: obscured sky
Weather: +SN FZFG  (heavy snow, freezing fog)
SOME DATA ABOVE MAY BE INACCURATE!!!
"$" is an indication the sensor requires maintenance

METAR text: KBTV 201643Z 33014KT 1/8SM R15/2000V2800FT +SN FZFG VV008 M16/M19 A2957 RMK AO2 VIS 1/8V1/2 P0000 T11611189 $
Conditions at: KBTV (BURLINGTON , VT, US) observed 1643 UTC 20 January 2019
Temperature: -16.1°C ( 3°F)
Dewpoint: -18.9°C (-2°F) [RH = 79%]
Pressure (altimeter): 29.57 inches Hg (1001.4 mb)
Winds: from the NNW (330 degrees) at 16 MPH (14 knots; 7.2 m/s)
Visibility: 0.13 miles (0.21 km)
Ceiling: indefinite ceiling with vertical visibility of 800 feet AGL
Clouds: obscured sky
Weather: +SN FZFG  (heavy snow, freezing fog)
SOME DATA ABOVE MAY BE INACCURATE!!!
"$" is an indication the sensor requires maintenance

METAR text: KBTV 201626Z 34012KT 1/4SM R15/2000V3000FT +SN FZFG VV008 M16/M18 A2956 RMK AO2 PRESFR VIS 1/8V1/2 P0000 T11611183 $
Conditions at: KBTV (BURLINGTON , VT, US) observed 1626 UTC 20 January 2019
Temperature: -16.1°C ( 3°F)
Dewpoint: -18.3°C (-1°F) [RH = 83%]
Pressure (altimeter): 29.56 inches Hg (1001.1 mb)
Winds: from the NNW (340 degrees) at 14 MPH (12 knots; 6.2 m/s)
Visibility: 0.25 miles (0.40 km)
Ceiling: indefinite ceiling with vertical visibility of 800 feet AGL
Clouds: obscured sky
Weather: +SN FZFG  (heavy snow, freezing fog)
SOME DATA ABOVE MAY BE INACCURATE!!!
"$" is an indication the sensor requires maintenance

METAR text: KBTV 201624Z 33013KT 1/2SM R15/1800V2600FT +SN FZFG VV007 M16/M18 A2957 RMK AO2 VIS 1/8V1/4 P0000 T11561183 $
Conditions at: KBTV (BURLINGTON , VT, US) observed 1624 UTC 20 January 2019
Temperature: -15.6°C ( 4°F)
Dewpoint: -18.3°C (-1°F) [RH = 80%]
Pressure (altimeter): 29.57 inches Hg (1001.4 mb)
Winds: from the NNW (330 degrees) at 15 MPH (13 knots; 6.7 m/s)
Visibility: 0.50 miles (0.80 km)
Ceiling: indefinite ceiling with vertical visibility of 700 feet AGL
Clouds: obscured sky
Weather: +SN FZFG  (heavy snow, freezing fog)
SOME DATA ABOVE MAY BE INACCURATE!!!
"$" is an indication the sensor requires maintenance

METAR text: KBTV 201554Z 33014KT 1/8SM R15/1400V2000FT +SN FZFG VV006 M15/M18 A2959 RMK AO2 SLP031 VIS 1/8V1/2 SNINCR 1/16 P0000 T11501178 $
Conditions at: KBTV (BURLINGTON , VT, US) observed 1554 UTC 20 January 2019
Temperature: -15.0°C ( 5°F)
Dewpoint: -17.8°C (-0°F) [RH = 79%]
Pressure (altimeter): 29.59 inches Hg (1002.1 mb)
[Sea-level pressure: 1003.1 mb]
Winds: from the NNW (330 degrees) at 16 MPH (14 knots; 7.2 m/s)
Visibility: 0.13 miles (0.21 km)
Ceiling: indefinite ceiling with vertical visibility of 600 feet AGL
Clouds: obscured sky
Weather: +SN FZFG  (heavy snow, freezing fog)
SOME DATA ABOVE MAY BE INACCURATE!!!
"$" is an indication the sensor requires maintenance

METAR text: KBTV 201528Z 33015KT 1/8SM R15/1400V2200FT +SN FZFG VV007 M15/M18 A2961 RMK AO2 VIS 1/4V1/2 P0000 T11501178
Conditions at: KBTV (BURLINGTON , VT, US) observed 1528 UTC 20 January 2019
Temperature: -15.0°C ( 5°F)
Dewpoint: -17.8°C (-0°F) [RH = 79%]
Pressure (altimeter): 29.61 inches Hg (1002.8 mb)
Winds: from the NNW (330 degrees) at 17 MPH (15 knots; 7.7 m/s)
Visibility: 0.13 miles (0.21 km)
Ceiling: indefinite ceiling with vertical visibility of 700 feet AGL
Clouds: obscured sky
Weather: +SN FZFG  (heavy snow, freezing fog)

METAR text: KBTV 201526Z 33015KT 1/4SM R15/1600V2400FT +SN FZFG VV007 M16/M18 A2961 RMK AO2 VIS 1/4V1/2 P0000 T11561183
Conditions at: KBTV (BURLINGTON , VT, US) observed 1526 UTC 20 January 2019
Temperature: -15.6°C ( 4°F)
Dewpoint: -18.3°C (-1°F) [RH = 80%]
Pressure (altimeter): 29.61 inches Hg (1002.8 mb)
Winds: from the NNW (330 degrees) at 17 MPH (15 knots; 7.7 m/s)
Visibility: 0.25 miles (0.40 km)
Ceiling: indefinite ceiling with vertical visibility of 700 feet AGL
Clouds: obscured sky
Weather: +SN FZFG  (heavy snow, freezing fog)

METAR text: KBTV 201503Z 34007KT 1/4SM R15/2400V3000FT +SN FZFG VV008 M16/M19 A2962 RMK AO2 VIS 1/4V1/2 P0000 T11611189
Conditions at: KBTV (BURLINGTON , VT, US) observed 1503 UTC 20 January 2019
Temperature: -16.1°C ( 3°F)
Dewpoint: -18.9°C (-2°F) [RH = 79%]
Pressure (altimeter): 29.62 inches Hg (1003.1 mb)
Winds: from the NNW (340 degrees) at 8 MPH (7 knots; 3.6 m/s)
Visibility: 0.25 miles (0.40 km)
Ceiling: indefinite ceiling with vertical visibility of 800 feet AGL
Clouds: obscured sky
Weather: +SN FZFG  (heavy snow, freezing fog)

METAR text: KBTV 201501Z 34007KT 1/2SM R15/2400V3500FT SN FZFG VV008 M17/M19 A2962 RMK AO2 P0000 T11671189
Conditions at: KBTV (BURLINGTON , VT, US) observed 1501 UTC 20 January 2019
Temperature: -16.7°C ( 2°F)
Dewpoint: -18.9°C (-2°F) [RH = 83%]
Pressure (altimeter): 29.62 inches Hg (1003.1 mb)
Winds: from the NNW (340 degrees) at 8 MPH (7 knots; 3.6 m/s)
Visibility: 0.50 miles (0.80 km)
Ceiling: indefinite ceiling with vertical visibility of 800 feet AGL
Clouds: obscured sky
Weather: SN FZFG  (moderate snow, freezing fog)

METAR text: KBTV 201454Z 34006KT 1/4SM R15/1600V3500FT +SN FZFG VV007 M17/M19 A2962 RMK AO2 SLP039 VIS 1/8V1/4 SNINCR 2/15 P0001 60002 T11671194 58047
Conditions at: KBTV (BURLINGTON , VT, US) observed 1454 UTC 20 January 2019
Temperature: -16.7°C ( 2°F)
Dewpoint: -19.4°C (-3°F) [RH = 80%]
Pressure (altimeter): 29.62 inches Hg (1003.1 mb)
[Sea-level pressure: 1003.9 mb]
Winds: from the NNW (340 degrees) at 7 MPH (6 knots; 3.1 m/s)
Visibility: 0.25 miles (0.40 km)
Ceiling: indefinite ceiling with vertical visibility of 700 feet AGL
Clouds: obscured sky
Weather: +SN FZFG  (heavy snow, freezing fog)

METAR text: KBTV 201437Z 34004KT 1/4SM R15/2000V2600FT +SN FZFG VV006 M17/M20 A2962 RMK AO2 VIS 1/8V1/4 P0001 T11721200
Conditions at: KBTV (BURLINGTON , VT, US) observed 1437 UTC 20 January 2019
Temperature: -17.2°C ( 1°F)
Dewpoint: -20.0°C (-4°F) [RH = 79%]
Pressure (altimeter): 29.62 inches Hg (1003.1 mb)
Winds: from the NNW (340 degrees) at 5 MPH (4 knots; 2.1 m/s)
Visibility: 0.25 miles (0.40 km)
Ceiling: indefinite ceiling with vertical visibility of 600 feet AGL
Clouds: obscured sky
Weather: +SN FZFG  (heavy snow, freezing fog)

METAR text: KBTV 201354Z 32006KT 1/8SM R15/1600V1800FT +SN FZFG VV004 M18/M21 A2967 RMK AO2 SLP057 SNINCR 1/12 P0001 T11831211
Conditions at: KBTV (BURLINGTON , VT, US) observed 1354 UTC 20 January 2019
Temperature: -18.3°C (-1°F)
Dewpoint: -21.1°C (-6°F) [RH = 79%]
Pressure (altimeter): 29.67 inches Hg (1004.8 mb)
[Sea-level pressure: 1005.7 mb]
Winds: from the NW (320 degrees) at 7 MPH (6 knots; 3.1 m/s)
Visibility: 0.13 miles (0.21 km)
Ceiling: indefinite ceiling with vertical visibility of 400 feet AGL
Clouds: obscured sky
Weather: +SN FZFG  (heavy snow, freezing fog)

METAR text: KBTV 201339Z 34005KT 1/8SM R15/1600V2000FT +SN FZFG VV005 M18/M21 A2968 RMK AO2 VIS 1/8V1/2 P0001 T11831211
Conditions at: KBTV (BURLINGTON , VT, US) observed 1339 UTC 20 January 2019
Temperature: -18.3°C (-1°F)
Dewpoint: -21.1°C (-6°F) [RH = 79%]
Pressure (altimeter): 29.68 inches Hg (1005.2 mb)
Winds: from the NNW (340 degrees) at 6 MPH (5 knots; 2.6 m/s)
Visibility: 0.13 miles (0.21 km)
Ceiling: indefinite ceiling with vertical visibility of 500 feet AGL
Clouds: obscured sky
Weather: +SN FZFG  (heavy snow, freezing fog)

METAR text: KBTV 201329Z 34003KT 1/8SM R15/2000V2800FT +SN FZFG VV006 M18/M21 A2970 RMK AO2 VIS 1/8V1/2 P0000 T11831211
Conditions at: KBTV (BURLINGTON , VT, US) observed 1329 UTC 20 January 2019
Temperature: -18.3°C (-1°F)
Dewpoint: -21.1°C (-6°F) [RH = 79%]
Pressure (altimeter): 29.70 inches Hg (1005.8 mb)
Winds: from the NNW (340 degrees) at 3 MPH (3 knots; 1.5 m/s)
Visibility: 0.13 miles (0.21 km)
Ceiling: indefinite ceiling with vertical visibility of 600 feet AGL
Clouds: obscured sky
Weather: +SN FZFG  (heavy snow, freezing fog)

METAR text: KBTV 201313Z 34004KT 1/8SM R15/2400V3000FT +SN FZFG VV008 M19/M22 A2970 RMK AO2 VIS 1/8V1/2 P0000 T11891217
Conditions at: KBTV (BURLINGTON , VT, US) observed 1313 UTC 20 January 2019
Temperature: -18.9°C (-2°F)
Dewpoint: -21.7°C (-7°F) [RH = 78%]
Pressure (altimeter): 29.70 inches Hg (1005.8 mb)
Winds: from the NNW (340 degrees) at 5 MPH (4 knots; 2.1 m/s)
Visibility: 0.13 miles (0.21 km)
Ceiling: indefinite ceiling with vertical visibility of 800 feet AGL
Clouds: obscured sky
Weather: +SN FZFG  (heavy snow, freezing fog)

METAR text: KBTV 201309Z 34005KT 1/4SM R15/2200V4000FT +SN FZFG VV009 M19/M22 A2971 RMK AO2 VIS 1/8V1/2 P0000 T11891217
Conditions at: KBTV (BURLINGTON , VT, US) observed 1309 UTC 20 January 2019
Temperature: -18.9°C (-2°F)
Dewpoint: -21.7°C (-7°F) [RH = 78%]
Pressure (altimeter): 29.71 inches Hg (1006.2 mb)
Winds: from the NNW (340 degrees) at 6 MPH (5 knots; 2.6 m/s)
Visibility: 0.25 miles (0.40 km)
Ceiling: indefinite ceiling with vertical visibility of 900 feet AGL
Clouds: obscured sky
Weather: +SN FZFG  (heavy snow, freezing fog)

METAR text: KBTV 201301Z 35004KT 1/4SM R15/2600V4500FT +SN FZFG VV010 M19/M22 A2971 RMK AO2 VIS 1/8V1/2 P0000 T11891217
Conditions at: KBTV (BURLINGTON , VT, US) observed 1301 UTC 20 January 2019
Temperature: -18.9°C (-2°F)
Dewpoint: -21.7°C (-7°F) [RH = 78%]
Pressure (altimeter): 29.71 inches Hg (1006.2 mb)
Winds: from the N (350 degrees) at 5 MPH (4 knots; 2.1 m/s)
Visibility: 0.25 miles (0.40 km)
Ceiling: indefinite ceiling with vertical visibility of 1000 feet AGL
Clouds: obscured sky
Weather: +SN FZFG  (heavy snow, freezing fog)

METAR text: KBTV 201254Z 34007KT 1/2SM R15/2600V5000FT SN FZFG VV009 M19/M22 A2972 RMK AO2 SLP074 VIS 1/8V1/2 SNINCR 1/11 P0000 T11891222
Conditions at: KBTV (BURLINGTON , VT, US) observed 1254 UTC 20 January 2019
Temperature: -18.9°C (-2°F)
Dewpoint: -22.2°C (-8°F) [RH = 75%]
Pressure (altimeter): 29.72 inches Hg (1006.5 mb)
[Sea-level pressure: 1007.4 mb]
Winds: from the NNW (340 degrees) at 8 MPH (7 knots; 3.6 m/s)
Visibility: 0.50 miles (0.80 km)
Ceiling: indefinite ceiling with vertical visibility of 900 feet AGL
Clouds: obscured sky
Weather: SN FZFG  (moderate snow, freezing fog)

METAR text: KBTV 201232Z 34006KT 1/4SM R15/3500V4500FT +SN FZFG VV008 M19/M22 A2973 RMK AO2 VIS 1/8V1/2 P0000 T11941222
Conditions at: KBTV (BURLINGTON , VT, US) observed 1232 UTC 20 January 2019
Temperature: -19.4°C (-3°F)
Dewpoint: -22.2°C (-8°F) [RH = 78%]
Pressure (altimeter): 29.73 inches Hg (1006.9 mb)
Winds: from the NNW (340 degrees) at 7 MPH (6 knots; 3.1 m/s)
Visibility: 0.25 miles (0.40 km)
Ceiling: indefinite ceiling with vertical visibility of 800 feet AGL
Clouds: obscured sky
Weather: +SN FZFG  (heavy snow, freezing fog)

METAR text: KBTV 201229Z 34007KT 1/8SM R15/3500V5500FT +SN FZFG VV009 M19/M22 A2974 RMK AO2 VIS 1/8V1/2 P0000 T11941222
Conditions at: KBTV (BURLINGTON , VT, US) observed 1229 UTC 20 January 2019
Temperature: -19.4°C (-3°F)
Dewpoint: -22.2°C (-8°F) [RH = 78%]
Pressure (altimeter): 29.74 inches Hg (1007.2 mb)
Winds: from the NNW (340 degrees) at 8 MPH (7 knots; 3.6 m/s)
Visibility: 0.13 miles (0.21 km)
Ceiling: indefinite ceiling with vertical visibility of 900 feet AGL
Clouds: obscured sky
Weather: +SN FZFG  (heavy snow, freezing fog)

METAR text: KBTV 201216Z 34005KT 1/4SM R15/5000VP6000FT +SN FZFG VV010 M19/M22 A2974 RMK AO2 VIS 1/4V1/2 P0000 T11941222
Conditions at: KBTV (BURLINGTON , VT, US) observed 1216 UTC 20 January 2019
Temperature: -19.4°C (-3°F)
Dewpoint: -22.2°C (-8°F) [RH = 78%]
Pressure (altimeter): 29.74 inches Hg (1007.2 mb)
Winds: from the NNW (340 degrees) at 6 MPH (5 knots; 2.6 m/s)
Visibility: 0.25 miles (0.40 km)
Ceiling: indefinite ceiling with vertical visibility of 1000 feet AGL
Clouds: obscured sky
Weather: +SN FZFG  (heavy snow, freezing fog)

METAR text: KBTV 201207Z 35006KT 1/2SM R15/6000VP6000FT SN FZFG VV012 M19/M22 A2975 RMK AO2 P0000 T11941222
Conditions at: KBTV (BURLINGTON , VT, US) observed 1207 UTC 20 January 2019
Temperature: -19.4°C (-3°F)
Dewpoint: -22.2°C (-8°F) [RH = 78%]
Pressure (altimeter): 29.75 inches Hg (1007.5 mb)
Winds: from the N (350 degrees) at 7 MPH (6 knots; 3.1 m/s)
Visibility: 0.50 miles (0.80 km)
Ceiling: indefinite ceiling with vertical visibility of 1200 feet AGL
Clouds: obscured sky
Weather: SN FZFG  (moderate snow, freezing fog)

METAR text: KBTV 201154Z 36005KT 3/4SM R15/5000VP6000FT -SN VV014 M19/M22 A2976 RMK AO2 SLP088 SNINCR 1/11 4/011 P0000 60040 70060 T11941222 11194 21206 56062
Conditions at: KBTV (BURLINGTON , VT, US) observed 1154 UTC 20 January 2019
Temperature: -19.4°C (-3°F)
Dewpoint: -22.2°C (-8°F) [RH = 78%]
Pressure (altimeter): 29.76 inches Hg (1007.9 mb)
[Sea-level pressure: 1008.8 mb]
Winds: from the N (360 degrees) at 6 MPH (5 knots; 2.6 m/s)
Visibility: 0.75 miles (1.21 km)
Ceiling: indefinite ceiling with vertical visibility of 1400 feet AGL
Clouds: obscured sky
Weather: -SN  (light snow)

METAR text: KBTV 201140Z 36005KT 3/4SM R15/P6000FT -SN VV013 M19/M22 A2978 RMK AO2 P0000 T11941222
Conditions at: KBTV (BURLINGTON , VT, US) observed 1140 UTC 20 January 2019
Temperature: -19.4°C (-3°F)
Dewpoint: -22.2°C (-8°F) [RH = 78%]
Pressure (altimeter): 29.78 inches Hg (1008.5 mb)
Winds: from the N (360 degrees) at 6 MPH (5 knots; 2.6 m/s)
Visibility: 0.75 miles (1.21 km)
Ceiling: indefinite ceiling with vertical visibility of 1300 feet AGL
Clouds: obscured sky
Weather: -SN  (light snow)

METAR text: KBTV 201136Z 35005KT 1/2SM R15/2400VP6000FT SN FZFG VV012 M19/M22 A2979 RMK AO2 P0000 T11941222
Conditions at: KBTV (BURLINGTON , VT, US) observed 1136 UTC 20 January 2019
Temperature: -19.4°C (-3°F)
Dewpoint: -22.2°C (-8°F) [RH = 78%]
Pressure (altimeter): 29.79 inches Hg (1008.9 mb)
Winds: from the N (350 degrees) at 6 MPH (5 knots; 2.6 m/s)
Visibility: 0.50 miles (0.80 km)
Ceiling: indefinite ceiling with vertical visibility of 1200 feet AGL
Clouds: obscured sky
Weather: SN FZFG  (moderate snow, freezing fog)

METAR text: KBTV 201128Z 36005KT 1/2SM R15/5500VP6000FT SN FZFG VV009 M19/M22 A2979 RMK AO2 VIS 1/8V1/2 P0000 T11941222
Conditions at: KBTV (BURLINGTON , VT, US) observed 1128 UTC 20 January 2019
Temperature: -19.4°C (-3°F)
Dewpoint: -22.2°C (-8°F) [RH = 78%]
Pressure (altimeter): 29.79 inches Hg (1008.9 mb)
Winds: from the N (360 degrees) at 6 MPH (5 knots; 2.6 m/s)
Visibility: 0.50 miles (0.80 km)
Ceiling: indefinite ceiling with vertical visibility of 900 feet AGL
Clouds: obscured sky
Weather: SN FZFG  (moderate snow, freezing fog)

METAR text: KBTV 201118Z 34006KT 1/2SM R15/2200VP6000FT SN FZFG VV007 M19/M22 A2980 RMK AO2 VIS 1/8V1/2 P0000 T11941222
Conditions at: KBTV (BURLINGTON , VT, US) observed 1118 UTC 20 January 2019
Temperature: -19.4°C (-3°F)
Dewpoint: -22.2°C (-8°F) [RH = 78%]
Pressure (altimeter): 29.80 inches Hg (1009.2 mb)
Winds: from the NNW (340 degrees) at 7 MPH (6 knots; 3.1 m/s)
Visibility: 0.50 miles (0.80 km)
Ceiling: indefinite ceiling with vertical visibility of 700 feet AGL
Clouds: obscured sky
Weather: SN FZFG  (moderate snow, freezing fog)

METAR text: KBTV 201109Z 33008KT 1/4SM R15/3000V5500FT +SN FZFG VV005 M20/M23 A2979 RMK AO2 PRESFR VIS 1/8V1/4 P0000 T12001228
Conditions at: KBTV (BURLINGTON , VT, US) observed 1109 UTC 20 January 2019
Temperature: -20.0°C (-4°F)
Dewpoint: -22.8°C (-9°F) [RH = 78%]
Pressure (altimeter): 29.79 inches Hg (1008.9 mb)
Winds: from the NNW (330 degrees) at 9 MPH (8 knots; 4.1 m/s)
Visibility: 0.25 miles (0.40 km)
Ceiling: indefinite ceiling with vertical visibility of 500 feet AGL
Clouds: obscured sky
Weather: +SN FZFG  (heavy snow, freezing fog)

METAR text: KBTV 201054Z 33007KT 1/4SM R15/2000V4000FT +SN FZFG VV004 M20/M23 A2981 RMK AO2 SLP105 SNINCR 1/9 P0008 T12001228
Conditions at: KBTV (BURLINGTON , VT, US) observed 1054 UTC 20 January 2019
Temperature: -20.0°C (-4°F)
Dewpoint: -22.8°C (-9°F) [RH = 78%]
Pressure (altimeter): 29.81 inches Hg (1009.6 mb)
[Sea-level pressure: 1010.5 mb]
Winds: from the NNW (330 degrees) at 8 MPH (7 knots; 3.6 m/s)
Visibility: 0.25 miles (0.40 km)
Ceiling: indefinite ceiling with vertical visibility of 400 feet AGL
Clouds: obscured sky
Weather: +SN FZFG  (heavy snow, freezing fog)

METAR text: KBTV 201031Z 33006KT 1/4SM R15/3000VP6000FT +SN FZFG VV006 M20/M23 A2984 RMK AO2 P0006 T12001228
Conditions at: KBTV (BURLINGTON , VT, US) observed 1031 UTC 20 January 2019
Temperature: -20.0°C (-4°F)
Dewpoint: -22.8°C (-9°F) [RH = 78%]
Pressure (altimeter): 29.84 inches Hg (1010.6 mb)
Winds: from the NNW (330 degrees) at 7 MPH (6 knots; 3.1 m/s)
Visibility: 0.25 miles (0.40 km)
Ceiling: indefinite ceiling with vertical visibility of 600 feet AGL
Clouds: obscured sky
Weather: +SN FZFG  (heavy snow, freezing fog)

METAR text: KBTV 201023Z 34006KT 1/4SM R15/3500VP6000FT +SN VV005 M20/M23 A2984 RMK AO2 P0005 T12001228
Conditions at: KBTV (BURLINGTON , VT, US) observed 1023 UTC 20 January 2019
Temperature: -20.0°C (-4°F)
Dewpoint: -22.8°C (-9°F) [RH = 78%]
Pressure (altimeter): 29.84 inches Hg (1010.6 mb)
Winds: from the NNW (340 degrees) at 7 MPH (6 knots; 3.1 m/s)
Visibility: 0.25 miles (0.40 km)
Ceiling: indefinite ceiling with vertical visibility of 500 feet AGL
Clouds: obscured sky
Weather: +SN  (heavy snow)

METAR text: KBTV 201015Z 35006KT 1/2SM R15/2600V5000FT SN VV005 M20/M23 A2985 RMK AO2 PRESFR P0005 T12001228
Conditions at: KBTV (BURLINGTON , VT, US) observed 1015 UTC 20 January 2019
Temperature: -20.0°C (-4°F)
Dewpoint: -22.8°C (-9°F) [RH = 78%]
Pressure (altimeter): 29.85 inches Hg (1010.9 mb)
Winds: from the N (350 degrees) at 7 MPH (6 knots; 3.1 m/s)
Visibility: 0.50 miles (0.80 km)
Ceiling: indefinite ceiling with vertical visibility of 500 feet AGL
Clouds: obscured sky
Weather: SN  (moderate snow)

METAR text: KBTV 201006Z 35006KT 1/2SM R15/3000V5000FT SN VV004 M20/M23 A2986 RMK AO2 P0003 T12001228
Conditions at: KBTV (BURLINGTON , VT, US) observed 1006 UTC 20 January 2019
Temperature: -20.0°C (-4°F)
Dewpoint: -22.8°C (-9°F) [RH = 78%]
Pressure (altimeter): 29.86 inches Hg (1011.3 mb)
Winds: from the N (350 degrees) at 7 MPH (6 knots; 3.1 m/s)
Visibility: 0.50 miles (0.80 km)
Ceiling: indefinite ceiling with vertical visibility of 400 feet AGL
Clouds: obscured sky
Weather: SN  (moderate snow)

METAR text: KBTV 200954Z 35007KT 1/4SM R15/2400V4000FT +SN VV004 M20/M23 A2987 RMK AO2 SLP127 P0014 T12001228
Conditions at: KBTV (BURLINGTON , VT, US) observed 0954 UTC 20 January 2019
Temperature: -20.0°C (-4°F)
Dewpoint: -22.8°C (-9°F) [RH = 78%]
Pressure (altimeter): 29.87 inches Hg (1011.6 mb)
[Sea-level pressure: 1012.7 mb]
Winds: from the N (350 degrees) at 8 MPH (7 knots; 3.6 m/s)
Visibility: 0.25 miles (0.40 km)
Ceiling: indefinite ceiling with vertical visibility of 400 feet AGL
Clouds: obscured sky
Weather: +SN  (heavy snow)

METAR text: KBTV 200952Z 35007KT 1/4SM R15/2600V4000FT +SN VV004 M20/M23 A2988 RMK AO2 P0013
Conditions at: KBTV (BURLINGTON , VT, US) observed 0952 UTC 20 January 2019
Temperature: -20.0°C (-4°F)
Dewpoint: -23.0°C (-9°F) [RH = 77%]
Pressure (altimeter): 29.88 inches Hg (1011.9 mb)
Winds: from the N (350 degrees) at 8 MPH (7 knots; 3.6 m/s)
Visibility: 0.25 miles (0.40 km)
Ceiling: indefinite ceiling with vertical visibility of 400 feet AGL
Clouds: obscured sky
Weather: +SN  (heavy snow)

METAR text: KBTV 200854Z 35005KT 1/2SM R15/3000V4000FT SN FZFG VV005 M21/M23 A2994 RMK AO2 SLP150 P0012 60018 T12061228 56044
Conditions at: KBTV (BURLINGTON , VT, US) observed 0854 UTC 20 January 2019
Temperature: -20.6°C (-5°F)
Dewpoint: -22.8°C (-9°F) [RH = 82%]
Pressure (altimeter): 29.94 inches Hg (1014.0 mb)
[Sea-level pressure: 1015.0 mb]
Winds: from the N (350 degrees) at 6 MPH (5 knots; 2.6 m/s)
Visibility: 0.50 miles (0.80 km)
Ceiling: indefinite ceiling with vertical visibility of 500 feet AGL
Clouds: obscured sky
Weather: SN FZFG  (moderate snow, freezing fog)

METAR text: KBTV 200816Z 31008KT 3/4SM R15/3500V4500FT -SN VV007 M20/M23 A2999 RMK AO2 P0003 T12001233
Conditions at: KBTV (BURLINGTON , VT, US) observed 0816 UTC 20 January 2019
Temperature: -20.0°C (-4°F)
Dewpoint: -23.3°C (-10°F) [RH = 75%]
Pressure (altimeter): 29.99 inches Hg (1015.7 mb)
Winds: from the NW (310 degrees) at 9 MPH (8 knots; 4.1 m/s)
Visibility: 0.75 miles (1.21 km)
Ceiling: indefinite ceiling with vertical visibility of 700 feet AGL
Clouds: obscured sky
Weather: -SN  (light snow)

METAR text: KBTV 200807Z 32008KT 1SM R15/4500VP6000FT -SN VV008 M20/M23 A2998 RMK AO2 P0001 T12001233
Conditions at: KBTV (BURLINGTON , VT, US) observed 0807 UTC 20 January 2019
Temperature: -20.0°C (-4°F)
Dewpoint: -23.3°C (-10°F) [RH = 75%]
Pressure (altimeter): 29.98 inches Hg (1015.3 mb)
Winds: from the NW (320 degrees) at 9 MPH (8 knots; 4.1 m/s)
Visibility: 1.00 miles (1.61 km)
Ceiling: indefinite ceiling with vertical visibility of 800 feet AGL
Clouds: obscured sky
Weather: -SN  (light snow)

METAR text: KBTV 200754Z 33008KT 1SM R15/5000VP6000FT -SN VV010 M20/M23 A2997 RMK AO2 SLP159 P0003 T12001233
Conditions at: KBTV (BURLINGTON , VT, US) observed 0754 UTC 20 January 2019
Temperature: -20.0°C (-4°F)
Dewpoint: -23.3°C (-10°F) [RH = 75%]
Pressure (altimeter): 29.97 inches Hg (1015.0 mb)
[Sea-level pressure: 1015.9 mb]
Winds: from the NNW (330 degrees) at 9 MPH (8 knots; 4.1 m/s)
Visibility: 1.00 miles (1.61 km)
Ceiling: indefinite ceiling with vertical visibility of 1000 feet AGL
Clouds: obscured sky
Weather: -SN  (light snow)

METAR text: KBTV 200747Z 33007KT 1SM R15/6000VP6000FT -SN VV010 M21/M23 A2997 RMK AO2 P0002 T12061233
Conditions at: KBTV (BURLINGTON , VT, US) observed 0747 UTC 20 January 2019
Temperature: -20.6°C (-5°F)
Dewpoint: -23.3°C (-10°F) [RH = 79%]
Pressure (altimeter): 29.97 inches Hg (1015.0 mb)
Winds: from the NNW (330 degrees) at 8 MPH (7 knots; 3.6 m/s)
Visibility: 1.00 miles (1.61 km)
Ceiling: indefinite ceiling with vertical visibility of 1000 feet AGL
Clouds: obscured sky
Weather: -SN  (light snow)

METAR text: KBTV 200738Z 33006KT 1 1/2SM R15/4500VP6000FT -SN OVC014 M21/M23 A2998 RMK AO2 P0001 T12061233
Conditions at: KBTV (BURLINGTON , VT, US) observed 0738 UTC 20 January 2019
Temperature: -20.6°C (-5°F)
Dewpoint: -23.3°C (-10°F) [RH = 79%]
Pressure (altimeter): 29.98 inches Hg (1015.3 mb)
Winds: from the NNW (330 degrees) at 7 MPH (6 knots; 3.1 m/s)
Visibility: 1.50 miles (2.41 km)
Ceiling: 1400 feet AGL
Clouds: overcast cloud deck at 1400 feet AGL
Weather: -SN  (light snow)

METAR text: KBTV 200727Z 32007KT 1 1/4SM R15/4500VP6000FT -SN OVC022 M20/M23 A2999 RMK AO2 P0000 T12001233
Conditions at: KBTV (BURLINGTON , VT, US) observed 0727 UTC 20 January 2019
Temperature: -20.0°C (-4°F)
Dewpoint: -23.3°C (-10°F) [RH = 75%]
Pressure (altimeter): 29.99 inches Hg (1015.7 mb)
Winds: from the NW (320 degrees) at 8 MPH (7 knots; 3.6 m/s)
Visibility: 1.25 miles (2.01 km)
Ceiling: 2200 feet AGL
Clouds: overcast cloud deck at 2200 feet AGL
Weather: -SN  (light snow)

METAR text: KBTV 200718Z 33009KT 2 1/2SM R15/4000VP6000FT -SN OVC026 M21/M24 A3000 RMK AO2 P0000 T12061239
Conditions at: KBTV (BURLINGTON , VT, US) observed 0718 UTC 20 January 2019
Temperature: -20.6°C (-5°F)
Dewpoint: -23.9°C (-11°F) [RH = 75%]
Pressure (altimeter): 30.00 inches Hg (1016.0 mb)
Winds: from the NNW (330 degrees) at 10 MPH (9 knots; 4.6 m/s)
Visibility: 2.50 miles (4.02 km)
Ceiling: 2600 feet AGL
Clouds: overcast cloud deck at 2600 feet AGL
Weather: -SN  (light snow)

METAR text: KBTV 200707Z 34006KT 3SM -SN OVC032 M21/M23 A3000 RMK AO2 P0000 T12061233
Conditions at: KBTV (BURLINGTON , VT, US) observed 0707 UTC 20 January 2019
Temperature: -20.6°C (-5°F)
Dewpoint: -23.3°C (-10°F) [RH = 79%]
Pressure (altimeter): 30.00 inches Hg (1016.0 mb)
Winds: from the NNW (340 degrees) at 7 MPH (6 knots; 3.1 m/s)
Visibility: 3 miles ( 5 km)
Ceiling: 3200 feet AGL
Clouds: overcast cloud deck at 3200 feet AGL
Weather: -SN  (light snow)

METAR text: KBTV 200654Z 34008KT 2SM -SN OVC026 M21/M24 A3001 RMK AO2 SLP171 P0003 T12061239
Conditions at: KBTV (BURLINGTON , VT, US) observed 0654 UTC 20 January 2019
Temperature: -20.6°C (-5°F)
Dewpoint: -23.9°C (-11°F) [RH = 75%]
Pressure (altimeter): 30.01 inches Hg (1016.3 mb)
[Sea-level pressure: 1017.1 mb]
Winds: from the NNW (340 degrees) at 9 MPH (8 knots; 4.1 m/s)
Visibility: 2.00 miles (3.22 km)
Ceiling: 2600 feet AGL
Clouds: overcast cloud deck at 2600 feet AGL
Weather: -SN  (light snow)

METAR text: KBTV 200644Z 35008KT 2SM -SN OVC028 M21/M24 A3001 RMK AO2 PRESFR P0002 T12061239
Conditions at: KBTV (BURLINGTON , VT, US) observed 0644 UTC 20 January 2019
Temperature: -20.6°C (-5°F)
Dewpoint: -23.9°C (-11°F) [RH = 75%]
Pressure (altimeter): 30.01 inches Hg (1016.3 mb)
Winds: from the N (350 degrees) at 9 MPH (8 knots; 4.1 m/s)
Visibility: 2.00 miles (3.22 km)
Ceiling: 2800 feet AGL
Clouds: overcast cloud deck at 2800 feet AGL
Weather: -SN  (light snow)

METAR text: KBTV 200622Z 35007KT 3SM -SN OVC030 M21/M24 A3004 RMK AO2 P0002 T12061239
Conditions at: KBTV (BURLINGTON , VT, US) observed 0622 UTC 20 January 2019
Temperature: -20.6°C (-5°F)
Dewpoint: -23.9°C (-11°F) [RH = 75%]
Pressure (altimeter): 30.04 inches Hg (1017.4 mb)
Winds: from the N (350 degrees) at 8 MPH (7 knots; 3.6 m/s)
Visibility: 3 miles ( 5 km)
Ceiling: 3000 feet AGL
Clouds: overcast cloud deck at 3000 feet AGL
Weather: -SN  (light snow)

METAR text: KBTV 200616Z 36006KT 2SM -SN OVC026 M21/M24 A3004 RMK AO2 PRESFR P0002 T12061239
Conditions at: KBTV (BURLINGTON , VT, US) observed 0616 UTC 20 January 2019
Temperature: -20.6°C (-5°F)
Dewpoint: -23.9°C (-11°F) [RH = 75%]
Pressure (altimeter): 30.04 inches Hg (1017.4 mb)
Winds: from the N (360 degrees) at 7 MPH (6 knots; 3.1 m/s)
Visibility: 2.00 miles (3.22 km)
Ceiling: 2600 feet AGL
Clouds: overcast cloud deck at 2600 feet AGL
Weather: -SN  (light snow)

METAR text: KBTV 200609Z 36006KT 1SM R15/4000VP6000FT -SN VV016 M21/M24 A3005 RMK AO2 PRESFR P0002 T12061239
Conditions at: KBTV (BURLINGTON , VT, US) observed 0609 UTC 20 January 2019
Temperature: -20.6°C (-5°F)
Dewpoint: -23.9°C (-11°F) [RH = 75%]
Pressure (altimeter): 30.05 inches Hg (1017.7 mb)
Winds: from the N (360 degrees) at 7 MPH (6 knots; 3.1 m/s)
Visibility: 1.00 miles (1.61 km)
Ceiling: indefinite ceiling with vertical visibility of 1600 feet AGL
Clouds: obscured sky
Weather: -SN  (light snow)

METAR text: KBTV 200554Z 36006KT 3/4SM R15/5000VP6000FT -SN VV011 M21/M24 A3008 RMK AO2 PRESFR SLP195 P0004 60012 T12061239 11206 21211 56033
Conditions at: KBTV (BURLINGTON , VT, US) observed 0554 UTC 20 January 2019
Temperature: -20.6°C (-5°F)
Dewpoint: -23.9°C (-11°F) [RH = 75%]
Pressure (altimeter): 30.08 inches Hg (1018.7 mb)
[Sea-level pressure: 1019.5 mb]
Winds: from the N (360 degrees) at 7 MPH (6 knots; 3.1 m/s)
Visibility: 0.75 miles (1.21 km)
Ceiling: indefinite ceiling with vertical visibility of 1100 feet AGL
Clouds: obscured sky
Weather: -SN  (light snow)

METAR text: KBTV 200550Z 35006KT 3/4SM R15/5000VP6000FT -SN VV011 M21/M24 A3008 RMK AO2 PRESFR P0004
Conditions at: KBTV (BURLINGTON , VT, US) observed 0550 UTC 20 January 2019
Temperature: -21.0°C (-6°F)
Dewpoint: -24.0°C (-11°F) [RH = 77%]
Pressure (altimeter): 30.08 inches Hg (1018.7 mb)
Winds: from the N (350 degrees) at 7 MPH (6 knots; 3.1 m/s)
Visibility: 0.75 miles (1.21 km)
Ceiling: indefinite ceiling with vertical visibility of 1100 feet AGL
Clouds: obscured sky
Weather: -SN  (light snow)

METAR text: KBTV 200542Z 36005KT 1SM R15/5000VP6000FT -SN VV012 M21/M24 A3010 RMK AO2 PRESFR P0003 T12061239
Conditions at: KBTV (BURLINGTON , VT, US) observed 0542 UTC 20 January 2019
Temperature: -20.6°C (-5°F)
Dewpoint: -23.9°C (-11°F) [RH = 75%]
Pressure (altimeter): 30.10 inches Hg (1019.4 mb)
Winds: from the N (360 degrees) at 6 MPH (5 knots; 2.6 m/s)
Visibility: 1.00 miles (1.61 km)
Ceiling: indefinite ceiling with vertical visibility of 1200 feet AGL
Clouds: obscured sky
Weather: -SN  (light snow)

METAR text: KBTV 200515Z 34006KT 1 1/4SM -SN OVC016 M21/M24 A3013 RMK AO2 P0002 T12061239
Conditions at: KBTV (BURLINGTON , VT, US) observed 0515 UTC 20 January 2019
Temperature: -20.6°C (-5°F)
Dewpoint: -23.9°C (-11°F) [RH = 75%]
Pressure (altimeter): 30.13 inches Hg (1020.4 mb)
Winds: from the NNW (340 degrees) at 7 MPH (6 knots; 3.1 m/s)
Visibility: 1.25 miles (2.01 km)
Ceiling: 1600 feet AGL
Clouds: overcast cloud deck at 1600 feet AGL
Weather: -SN  (light snow)

METAR text: KBTV 200454Z 35006KT 1 3/4SM -SN OVC022 M21/M24 A3014 RMK AO2 SLP218 /LAST/ P0001 T12111244 410611211
Conditions at: KBTV (BURLINGTON , VT, US) observed 0454 UTC 20 January 2019
Temperature: -21.1°C (-6°F)
Dewpoint: -24.4°C (-12°F) [RH = 75%]
Pressure (altimeter): 30.14 inches Hg (1020.7 mb)
[Sea-level pressure: 1021.8 mb]
Winds: from the N (350 degrees) at 7 MPH (6 knots; 3.1 m/s)
Visibility: 1.75 miles (2.82 km)
Ceiling: 2200 feet AGL
Clouds: overcast cloud deck at 2200 feet AGL
Weather: -SN  (light snow)

METAR text: KBTV 200414Z 36006KT 2SM -SN OVC021 M21/M24 A3016 RMK AO2 P0000 T12111244
Conditions at: KBTV (BURLINGTON , VT, US) observed 0414 UTC 20 January 2019
Temperature: -21.1°C (-6°F)
Dewpoint: -24.4°C (-12°F) [RH = 75%]
Pressure (altimeter): 30.16 inches Hg (1021.4 mb)
Winds: from the N (360 degrees) at 7 MPH (6 knots; 3.1 m/s)
Visibility: 2.00 miles (3.22 km)
Ceiling: 2100 feet AGL
Clouds: overcast cloud deck at 2100 feet AGL
Weather: -SN  (light snow)

METAR text: KBTV 200401Z 35008KT 1 1/2SM -SN OVC019 M21/M24 A3017 RMK AO2 P0000 T12111244
Conditions at: KBTV (BURLINGTON , VT, US) observed 0401 UTC 20 January 2019
Temperature: -21.1°C (-6°F)
Dewpoint: -24.4°C (-12°F) [RH = 75%]
Pressure (altimeter): 30.17 inches Hg (1021.8 mb)
Winds: from the N (350 degrees) at 9 MPH (8 knots; 4.1 m/s)
Visibility: 1.50 miles (2.41 km)
Ceiling: 1900 feet AGL
Clouds: overcast cloud deck at 1900 feet AGL
Weather: -SN  (light snow)

METAR text: KBTV 200354Z 35007KT 1 1/4SM -SN OVC015 M21/M24 A3018 RMK AO2 SLP229 P0004 T12111244
Conditions at: KBTV (BURLINGTON , VT, US) observed 0354 UTC 20 January 2019
Temperature: -21.1°C (-6°F)
Dewpoint: -24.4°C (-12°F) [RH = 75%]
Pressure (altimeter): 30.18 inches Hg (1022.1 mb)
[Sea-level pressure: 1022.9 mb]
Winds: from the N (350 degrees) at 8 MPH (7 knots; 3.6 m/s)
Visibility: 1.25 miles (2.01 km)
Ceiling: 1500 feet AGL
Clouds: overcast cloud deck at 1500 feet AGL
Weather: -SN  (light snow)

METAR text: KBTV 200328Z 35007KT 1SM R15/6000VP6000FT -SN VV013 M21/M24 A3020 RMK AO2 P0002 T12111244
Conditions at: KBTV (BURLINGTON , VT, US) observed 0328 UTC 20 January 2019
Temperature: -21.1°C (-6°F)
Dewpoint: -24.4°C (-12°F) [RH = 75%]
Pressure (altimeter): 30.20 inches Hg (1022.8 mb)
Winds: from the N (350 degrees) at 8 MPH (7 knots; 3.6 m/s)
Visibility: 1.00 miles (1.61 km)
Ceiling: indefinite ceiling with vertical visibility of 1300 feet AGL
Clouds: obscured sky
Weather: -SN  (light snow)

METAR text: KBTV 200301Z 36007KT 1SM R15/P6000FT -SN VV016 M21/M24 A3021 RMK AO2 P0001 T12111244
Conditions at: KBTV (BURLINGTON , VT, US) observed 0301 UTC 20 January 2019
Temperature: -21.1°C (-6°F)
Dewpoint: -24.4°C (-12°F) [RH = 75%]
Pressure (altimeter): 30.21 inches Hg (1023.1 mb)
Winds: from the N (360 degrees) at 8 MPH (7 knots; 3.6 m/s)
Visibility: 1.00 miles (1.61 km)
Ceiling: indefinite ceiling with vertical visibility of 1600 feet AGL
Clouds: obscured sky
Weather: -SN  (light snow)

METAR text: KBTV 200254Z 35006KT 3/4SM R15/P6000FT -SN VV016 M21/M24 A3021 RMK AO2 SLP241 VIS 1/2V1 P0002 60003 T12111244 56027
Conditions at: KBTV (BURLINGTON , VT, US) observed 0254 UTC 20 January 2019
Temperature: -21.1°C (-6°F)
Dewpoint: -24.4°C (-12°F) [RH = 75%]
Pressure (altimeter): 30.21 inches Hg (1023.1 mb)
[Sea-level pressure: 1024.1 mb]
Winds: from the N (350 degrees) at 7 MPH (6 knots; 3.1 m/s)
Visibility: 0.75 miles (1.21 km)
Ceiling: indefinite ceiling with vertical visibility of 1600 feet AGL
Clouds: obscured sky
Weather: -SN  (light snow)

METAR text: KBTV 200243Z 35006KT 3/4SM R15/P6000FT -SN VV016 M21/M24 A3022 RMK AO2 P0002 T12111244
Conditions at: KBTV (BURLINGTON , VT, US) observed 0243 UTC 20 January 2019
Temperature: -21.1°C (-6°F)
Dewpoint: -24.4°C (-12°F) [RH = 75%]
Pressure (altimeter): 30.22 inches Hg (1023.5 mb)
Winds: from the N (350 degrees) at 7 MPH (6 knots; 3.1 m/s)
Visibility: 0.75 miles (1.21 km)
Ceiling: indefinite ceiling with vertical visibility of 1600 feet AGL
Clouds: obscured sky
Weather: -SN  (light snow)

METAR text: KBTV 200203Z 34008KT 1 3/4SM -SN OVC022 M21/M24 A3023 RMK AO2 P0000 T12111244
Conditions at: KBTV (BURLINGTON , VT, US) observed 0203 UTC 20 January 2019
Temperature: -21.1°C (-6°F)
Dewpoint: -24.4°C (-12°F) [RH = 75%]
Pressure (altimeter): 30.23 inches Hg (1023.8 mb)
Winds: from the NNW (340 degrees) at 9 MPH (8 knots; 4.1 m/s)
Visibility: 1.75 miles (2.82 km)
Ceiling: 2200 feet AGL
Clouds: overcast cloud deck at 2200 feet AGL
Weather: -SN  (light snow)

METAR text: KBTV 200154Z 36007KT 2SM -SN OVC024 M21/M24 A3023 RMK AO2 SLP246 P0000 T12111244
Conditions at: KBTV (BURLINGTON , VT, US) observed 0154 UTC 20 January 2019
Temperature: -21.1°C (-6°F)
Dewpoint: -24.4°C (-12°F) [RH = 75%]
Pressure (altimeter): 30.23 inches Hg (1023.8 mb)
[Sea-level pressure: 1024.6 mb]
Winds: from the N (360 degrees) at 8 MPH (7 knots; 3.6 m/s)
Visibility: 2.00 miles (3.22 km)
Ceiling: 2400 feet AGL
Clouds: overcast cloud deck at 2400 feet AGL
Weather: -SN  (light snow)

METAR text: KBTV 200142Z 35006KT 2 1/2SM -SN OVC028 M21/M24 A3024 RMK AO2 P0000 T12111244
Conditions at: KBTV (BURLINGTON , VT, US) observed 0142 UTC 20 January 2019
Temperature: -21.1°C (-6°F)
Dewpoint: -24.4°C (-12°F) [RH = 75%]
Pressure (altimeter): 30.24 inches Hg (1024.1 mb)
Winds: from the N (350 degrees) at 7 MPH (6 knots; 3.1 m/s)
Visibility: 2.50 miles (4.02 km)
Ceiling: 2800 feet AGL
Clouds: overcast cloud deck at 2800 feet AGL
Weather: -SN  (light snow)

METAR text: KBTV 200054Z 36005KT 3SM -SN OVC032 M21/M24 A3028 RMK AO2 SLP262 P0001 T12111239
Conditions at: KBTV (BURLINGTON , VT, US) observed 0054 UTC 20 January 2019
Temperature: -21.1°C (-6°F)
Dewpoint: -23.9°C (-11°F) [RH = 78%]
Pressure (altimeter): 30.28 inches Hg (1025.5 mb)
[Sea-level pressure: 1026.2 mb]
Winds: from the N (360 degrees) at 6 MPH (5 knots; 2.6 m/s)
Visibility: 3 miles ( 5 km)
Ceiling: 3200 feet AGL
Clouds: overcast cloud deck at 3200 feet AGL
Weather: -SN  (light snow)

METAR text: KBTV 200000Z 35006KT 8SM -SN BKN048 OVC070 M21/M24 A3029 RMK AO2 4/004 P0000 T12111244
Conditions at: KBTV (BURLINGTON , VT, US) observed 0000 UTC 20 January 2019
Temperature: -21.1°C (-6°F)
Dewpoint: -24.4°C (-12°F) [RH = 75%]
Pressure (altimeter): 30.29 inches Hg (1025.8 mb)
Winds: from the N (350 degrees) at 7 MPH (6 knots; 3.1 m/s)
Visibility: 8 miles (13 km)
Ceiling: 4800 feet AGL
Clouds: broken clouds at 4800 feet AGL
overcast cloud deck at 7000 feet AGL
Weather: -SN  (light snow)

METAR text: KBTV 192353Z 36006KT 2 1/2SM -SN BKN035 OVC075 M21/M24 A3030 RMK AO2 VIS 1V4 SLP269 VIS 2V5 4/004 P0001 60008 T12111244 11183 21211 56020
Conditions at: KBTV (BURLINGTON , VT, US) observed 2353 UTC 19 January 2019
Temperature: -21.1°C (-6°F)
Dewpoint: -24.4°C (-12°F) [RH = 75%]
Pressure (altimeter): 30.30 inches Hg (1026.2 mb)
[Sea-level pressure: 1026.9 mb]
Winds: from the N (360 degrees) at 7 MPH (6 knots; 3.1 m/s)
Visibility: 2.50 miles (4.02 km)
Ceiling: 3500 feet AGL
Clouds: broken clouds at 3500 feet AGL
overcast cloud deck at 7500 feet AGL
Weather: -SN  (light snow)

METAR text: KBTV 192352Z 36007KT 2 1/2SM -SN BKN032 OVC075 M21/M24 A3030 RMK AO2 VIS 1V4 VIS 2V5 4/004 P0001
Conditions at: KBTV (BURLINGTON , VT, US) observed 2352 UTC 19 January 2019
Temperature: -21.0°C (-6°F)
Dewpoint: -24.0°C (-11°F) [RH = 77%]
Pressure (altimeter): 30.30 inches Hg (1026.2 mb)
Winds: from the N (360 degrees) at 8 MPH (7 knots; 3.6 m/s)
Visibility: 2.50 miles (4.02 km)
Ceiling: 3200 feet AGL
Clouds: broken clouds at 3200 feet AGL
overcast cloud deck at 7500 feet AGL
Weather: -SN  (light snow)

METAR text: KBTV 192326Z 34008KT 2 1/2SM -SN OVC028 M21/M24 A3030 RMK AO2 VIS 2V5 P0001 T12111244
Conditions at: KBTV (BURLINGTON , VT, US) observed 2326 UTC 19 January 2019
Temperature: -21.1°C (-6°F)
Dewpoint: -24.4°C (-12°F) [RH = 75%]
Pressure (altimeter): 30.30 inches Hg (1026.2 mb)
Winds: from the NNW (340 degrees) at 9 MPH (8 knots; 4.1 m/s)
Visibility: 2.50 miles (4.02 km)
Ceiling: 2800 feet AGL
Clouds: overcast cloud deck at 2800 feet AGL
Weather: -SN  (light snow)

METAR text: KBTV 192313Z 33008KT 3SM -SN OVC032 M21/M24 A3030 RMK AO2 VIS 2V5 P0001 T12061239
Conditions at: KBTV (BURLINGTON , VT, US) observed 2313 UTC 19 January 2019
Temperature: -20.6°C (-5°F)
Dewpoint: -23.9°C (-11°F) [RH = 75%]
Pressure (altimeter): 30.30 inches Hg (1026.2 mb)
Winds: from the NNW (330 degrees) at 9 MPH (8 knots; 4.1 m/s)
Visibility: 3 miles ( 5 km)
Ceiling: 3200 feet AGL
Clouds: overcast cloud deck at 3200 feet AGL
Weather: -SN  (light snow)

METAR text: KBTV 192254Z 35007KT 2 1/2SM -SN OVC030 M21/M24 A3031 RMK AO2 SLP272 VIS 2V5 P0001 T12061244
Conditions at: KBTV (BURLINGTON , VT, US) observed 2254 UTC 19 January 2019
Temperature: -20.6°C (-5°F)
Dewpoint: -24.4°C (-12°F) [RH = 72%]
Pressure (altimeter): 30.31 inches Hg (1026.5 mb)
[Sea-level pressure: 1027.2 mb]
Winds: from the N (350 degrees) at 8 MPH (7 knots; 3.6 m/s)
Visibility: 2.50 miles (4.02 km)
Ceiling: 3000 feet AGL
Clouds: overcast cloud deck at 3000 feet AGL
Weather: -SN  (light snow)

METAR text: KBTV 192216Z 36005KT 2SM -SN OVC023 M21/M24 A3033 RMK AO2 VIS 2V5 P0001 T12061239
Conditions at: KBTV (BURLINGTON , VT, US) observed 2216 UTC 19 January 2019
Temperature: -20.6°C (-5°F)
Dewpoint: -23.9°C (-11°F) [RH = 75%]
Pressure (altimeter): 30.33 inches Hg (1027.2 mb)
Winds: from the N (360 degrees) at 6 MPH (5 knots; 2.6 m/s)
Visibility: 2.00 miles (3.22 km)
Ceiling: 2300 feet AGL
Clouds: overcast cloud deck at 2300 feet AGL
Weather: -SN  (light snow)

METAR text: KBTV 192210Z 36007KT 1SM R15/P6000FT -SN OVC021 M21/M24 A3033 RMK AO2 P0001 T12061239
Conditions at: KBTV (BURLINGTON , VT, US) observed 2210 UTC 19 January 2019
Temperature: -20.6°C (-5°F)
Dewpoint: -23.9°C (-11°F) [RH = 75%]
Pressure (altimeter): 30.33 inches Hg (1027.2 mb)
Winds: from the N (360 degrees) at 8 MPH (7 knots; 3.6 m/s)
Visibility: 1.00 miles (1.61 km)
Ceiling: 2100 feet AGL
Clouds: overcast cloud deck at 2100 feet AGL
Weather: -SN  (light snow)

METAR text: KBTV 192201Z 35008KT 1SM R15/5000VP6000FT -SN VV013 M21/M24 A3034 RMK AO2 P0000 T12061239
Conditions at: KBTV (BURLINGTON , VT, US) observed 2201 UTC 19 January 2019
Temperature: -20.6°C (-5°F)
Dewpoint: -23.9°C (-11°F) [RH = 75%]
Pressure (altimeter): 30.34 inches Hg (1027.5 mb)
Winds: from the N (350 degrees) at 9 MPH (8 knots; 4.1 m/s)
Visibility: 1.00 miles (1.61 km)
Ceiling: indefinite ceiling with vertical visibility of 1300 feet AGL
Clouds: obscured sky
Weather: -SN  (light snow)

METAR text: KBTV 192154Z 35009KT 3/4SM R15/5000VP6000FT -SN VV014 M21/M24 A3034 RMK AO2 SLP285 VIS 1/2V1 P0003 T12061239
Conditions at: KBTV (BURLINGTON , VT, US) observed 2154 UTC 19 January 2019
Temperature: -20.6°C (-5°F)
Dewpoint: -23.9°C (-11°F) [RH = 75%]
Pressure (altimeter): 30.34 inches Hg (1027.5 mb)
[Sea-level pressure: 1028.5 mb]
Winds: from the N (350 degrees) at 10 MPH (9 knots; 4.6 m/s)
Visibility: 0.75 miles (1.21 km)
Ceiling: indefinite ceiling with vertical visibility of 1400 feet AGL
Clouds: obscured sky
Weather: -SN  (light snow)

METAR text: KBTV 192138Z 34007KT 3/4SM R15/5000VP6000FT -SN VV016 M20/M24 A3035 RMK AO2 VIS 1/2V1 P0003 T12001239
Conditions at: KBTV (BURLINGTON , VT, US) observed 2138 UTC 19 January 2019
Temperature: -20.0°C (-4°F)
Dewpoint: -23.9°C (-11°F) [RH = 71%]
Pressure (altimeter): 30.35 inches Hg (1027.9 mb)
Winds: from the NNW (340 degrees) at 8 MPH (7 knots; 3.6 m/s)
Visibility: 0.75 miles (1.21 km)
Ceiling: indefinite ceiling with vertical visibility of 1600 feet AGL
Clouds: obscured sky
Weather: -SN  (light snow)

METAR text: KBTV 192129Z 35007KT 1/2SM R15/5000VP6000FT SN VV017 M21/M24 A3035 RMK AO2 VIS 1/2V1 P0002 T12061239
Conditions at: KBTV (BURLINGTON , VT, US) observed 2129 UTC 19 January 2019
Temperature: -20.6°C (-5°F)
Dewpoint: -23.9°C (-11°F) [RH = 75%]
Pressure (altimeter): 30.35 inches Hg (1027.9 mb)
Winds: from the N (350 degrees) at 8 MPH (7 knots; 3.6 m/s)
Visibility: 0.50 miles (0.80 km)
Ceiling: indefinite ceiling with vertical visibility of 1700 feet AGL
Clouds: obscured sky
Weather: SN  (moderate snow)

METAR text: KBTV 192116Z 35007KT 3/4SM R15/5500VP6000FT -SN VV015 M20/M24 A3035 RMK AO2 VIS 1/2V1 P0001 T12001239
Conditions at: KBTV (BURLINGTON , VT, US) observed 2116 UTC 19 January 2019
Temperature: -20.0°C (-4°F)
Dewpoint: -23.9°C (-11°F) [RH = 71%]
Pressure (altimeter): 30.35 inches Hg (1027.9 mb)
Winds: from the N (350 degrees) at 8 MPH (7 knots; 3.6 m/s)
Visibility: 0.75 miles (1.21 km)
Ceiling: indefinite ceiling with vertical visibility of 1500 feet AGL
Clouds: obscured sky
Weather: -SN  (light snow)

METAR text: KBTV 192111Z 35007KT 1SM R15/5000VP6000FT -SN VV015 M20/M24 A3036 RMK AO2 VIS 1/2V1 P0001 T12001239
Conditions at: KBTV (BURLINGTON , VT, US) observed 2111 UTC 19 January 2019
Temperature: -20.0°C (-4°F)
Dewpoint: -23.9°C (-11°F) [RH = 71%]
Pressure (altimeter): 30.36 inches Hg (1028.2 mb)
Winds: from the N (350 degrees) at 8 MPH (7 knots; 3.6 m/s)
Visibility: 1.00 miles (1.61 km)
Ceiling: indefinite ceiling with vertical visibility of 1500 feet AGL
Clouds: obscured sky
Weather: -SN  (light snow)

METAR text: KBTV 192102Z 35007KT 3/4SM R15/4500V6000FT -SN VV014 M20/M24 A3035 RMK AO2 VIS 1/2V1 P0001 T12001239
Conditions at: KBTV (BURLINGTON , VT, US) observed 2102 UTC 19 January 2019
Temperature: -20.0°C (-4°F)
Dewpoint: -23.9°C (-11°F) [RH = 71%]
Pressure (altimeter): 30.35 inches Hg (1027.9 mb)
Winds: from the N (350 degrees) at 8 MPH (7 knots; 3.6 m/s)
Visibility: 0.75 miles (1.21 km)
Ceiling: indefinite ceiling with vertical visibility of 1400 feet AGL
Clouds: obscured sky
Weather: -SN  (light snow)

METAR text: KBTV 192054Z 34008KT 1/2SM R15/4500VP6000FT SN VV014 M20/M23 A3035 RMK AO2 TWR VIS 3/4 SLP288 VIS 1/2V1 P0002 60003 T12001233 56001
Conditions at: KBTV (BURLINGTON , VT, US) observed 2054 UTC 19 January 2019
Temperature: -20.0°C (-4°F)
Dewpoint: -23.3°C (-10°F) [RH = 75%]
Pressure (altimeter): 30.35 inches Hg (1027.9 mb)
[Sea-level pressure: 1028.8 mb]
Winds: from the NNW (340 degrees) at 9 MPH (8 knots; 4.1 m/s)
Visibility: 0.50 miles (0.80 km)
Ceiling: indefinite ceiling with vertical visibility of 1400 feet AGL
Clouds: obscured sky
Weather: SN  (moderate snow)

METAR text: KBTV 192039Z 34007KT 3/4SM R15/5000VP6000FT -SN VV016 M20/M23 A3036 RMK AO2 VIS 1/2V1 P0002 T12001233
Conditions at: KBTV (BURLINGTON , VT, US) observed 2039 UTC 19 January 2019
Temperature: -20.0°C (-4°F)
Dewpoint: -23.3°C (-10°F) [RH = 75%]
Pressure (altimeter): 30.36 inches Hg (1028.2 mb)
Winds: from the NNW (340 degrees) at 8 MPH (7 knots; 3.6 m/s)
Visibility: 0.75 miles (1.21 km)
Ceiling: indefinite ceiling with vertical visibility of 1600 feet AGL
Clouds: obscured sky
Weather: -SN  (light snow)

METAR text: KBTV 192022Z 33007KT 3/4SM R15/4500VP6000FT -SN VV015 M20/M23 A3037 RMK AO2 SFC VIS 1 VIS 1/2V1 P0001 T12001233
Conditions at: KBTV (BURLINGTON , VT, US) observed 2022 UTC 19 January 2019
Temperature: -20.0°C (-4°F)
Dewpoint: -23.3°C (-10°F) [RH = 75%]
Pressure (altimeter): 30.37 inches Hg (1028.5 mb)
Winds: from the NNW (330 degrees) at 8 MPH (7 knots; 3.6 m/s)
Visibility: 0.75 miles (1.21 km)
Ceiling: indefinite ceiling with vertical visibility of 1500 feet AGL
Clouds: obscured sky
Weather: -SN  (light snow)

METAR text: KBTV 191958Z 32009KT 3/4SM R15/4000V5500FT -SN VV015 M20/M23 A3036 RMK AO2 VIS 1/2V3/4 P0000 T12001233
Conditions at: KBTV (BURLINGTON , VT, US) observed 1958 UTC 19 January 2019
Temperature: -20.0°C (-4°F)
Dewpoint: -23.3°C (-10°F) [RH = 75%]
Pressure (altimeter): 30.36 inches Hg (1028.2 mb)
Winds: from the NW (320 degrees) at 10 MPH (9 knots; 4.6 m/s)
Visibility: 0.75 miles (1.21 km)
Ceiling: indefinite ceiling with vertical visibility of 1500 feet AGL
Clouds: obscured sky
Weather: -SN  (light snow)

METAR text: KBTV 191954Z 31009KT 1/2SM R15/4000V5500FT SN VV015 M20/M23 A3036 RMK AO2 SLP291 VIS 1/2V3/4 P0001 T12001233
Conditions at: KBTV (BURLINGTON , VT, US) observed 1954 UTC 19 January 2019
Temperature: -20.0°C (-4°F)
Dewpoint: -23.3°C (-10°F) [RH = 75%]
Pressure (altimeter): 30.36 inches Hg (1028.2 mb)
[Sea-level pressure: 1029.1 mb]
Winds: from the NW (310 degrees) at 10 MPH (9 knots; 4.6 m/s)
Visibility: 0.50 miles (0.80 km)
Ceiling: indefinite ceiling with vertical visibility of 1500 feet AGL
Clouds: obscured sky
Weather: SN  (moderate snow)

METAR text: KBTV 191938Z 30008KT 3/4SM R15/4500V6000FT -SN VV020 M19/M23 A3036 RMK AO2 TWR VIS 1 P0000 T11941233
Conditions at: KBTV (BURLINGTON , VT, US) observed 1938 UTC 19 January 2019
Temperature: -19.4°C (-3°F)
Dewpoint: -23.3°C (-10°F) [RH = 71%]
Pressure (altimeter): 30.36 inches Hg (1028.2 mb)
Winds: from the WNW (300 degrees) at 9 MPH (8 knots; 4.1 m/s)
Visibility: 0.75 miles (1.21 km)
Ceiling: indefinite ceiling with vertical visibility of 2000 feet AGL
Clouds: obscured sky
Weather: -SN  (light snow)

METAR text: KBTV 191931Z 31009KT 1SM R15/5500VP6000FT -SN OVC024 M19/M24 A3036 RMK AO2 P0000 T11941239
Conditions at: KBTV (BURLINGTON , VT, US) observed 1931 UTC 19 January 2019
Temperature: -19.4°C (-3°F)
Dewpoint: -23.9°C (-11°F) [RH = 67%]
Pressure (altimeter): 30.36 inches Hg (1028.2 mb)
Winds: from the NW (310 degrees) at 10 MPH (9 knots; 4.6 m/s)
Visibility: 1.00 miles (1.61 km)
Ceiling: 2400 feet AGL
Clouds: overcast cloud deck at 2400 feet AGL
Weather: -SN  (light snow)

METAR text: KBTV 191930Z 31008KT 1SM R15/5500VP6000FT -SN OVC024 M19/M24 A3036 RMK AO2 SFC VIS 1 3/4 P0000 T11941239
Conditions at: KBTV (BURLINGTON , VT, US) observed 1930 UTC 19 January 2019
Temperature: -19.4°C (-3°F)
Dewpoint: -23.9°C (-11°F) [RH = 67%]
Pressure (altimeter): 30.36 inches Hg (1028.2 mb)
Winds: from the NW (310 degrees) at 9 MPH (8 knots; 4.1 m/s)
Visibility: 1.00 miles (1.61 km)
Ceiling: 2400 feet AGL
Clouds: overcast cloud deck at 2400 feet AGL
Weather: -SN  (light snow)

METAR text: KBTV 191908Z 32008KT 2SM -SN BKN028 OVC039 M19/M24 A3034 RMK AO2 TWR VIS 2 1/2 P0000 T11941239
Conditions at: KBTV (BURLINGTON , VT, US) observed 1908 UTC 19 January 2019
Temperature: -19.4°C (-3°F)
Dewpoint: -23.9°C (-11°F) [RH = 67%]
Pressure (altimeter): 30.34 inches Hg (1027.5 mb)
Winds: from the NW (320 degrees) at 9 MPH (8 knots; 4.1 m/s)
Visibility: 2.00 miles (3.22 km)
Ceiling: 2800 feet AGL
Clouds: broken clouds at 2800 feet AGL
overcast cloud deck at 3900 feet AGL
Weather: -SN  (light snow)

METAR text: KBTV 191903Z 33010KT 2 1/2SM -SN OVC028 M19/M24 A3034 RMK AO2 P0000 T11941239
Conditions at: KBTV (BURLINGTON , VT, US) observed 1903 UTC 19 January 2019
Temperature: -19.4°C (-3°F)
Dewpoint: -23.9°C (-11°F) [RH = 67%]
Pressure (altimeter): 30.34 inches Hg (1027.5 mb)
Winds: from the NNW (330 degrees) at 12 MPH (10 knots; 5.1 m/s)
Visibility: 2.50 miles (4.02 km)
Ceiling: 2800 feet AGL
Clouds: overcast cloud deck at 2800 feet AGL
Weather: -SN  (light snow)

METAR text: KBTV 191858Z 32011KT 2SM -SN BKN028 OVC046 M19/M24 A3035 RMK AO2 TWR VIS 2 1/2 P0000 T11941244
Conditions at: KBTV (BURLINGTON , VT, US) observed 1858 UTC 19 January 2019
Temperature: -19.4°C (-3°F)
Dewpoint: -24.4°C (-12°F) [RH = 65%]
Pressure (altimeter): 30.35 inches Hg (1027.9 mb)
Winds: from the NW (320 degrees) at 13 MPH (11 knots; 5.7 m/s)
Visibility: 2.00 miles (3.22 km)
Ceiling: 2800 feet AGL
Clouds: broken clouds at 2800 feet AGL
overcast cloud deck at 4600 feet AGL
Weather: -SN  (light snow)

METAR text: KBTV 191857Z 32011KT 2 1/2SM -SN BKN028 OVC046 M19/M24 A3035 RMK AO2 SFC VIS 3 P0000 T11941244
Conditions at: KBTV (BURLINGTON , VT, US) observed 1857 UTC 19 January 2019
Temperature: -19.4°C (-3°F)
Dewpoint: -24.4°C (-12°F) [RH = 65%]
Pressure (altimeter): 30.35 inches Hg (1027.9 mb)
Winds: from the NW (320 degrees) at 13 MPH (11 knots; 5.7 m/s)
Visibility: 2.50 miles (4.02 km)
Ceiling: 2800 feet AGL
Clouds: broken clouds at 2800 feet AGL
overcast cloud deck at 4600 feet AGL
Weather: -SN  (light snow)

METAR text: KBTV 191854Z 32010KT 4SM -SN BKN032 OVC046 M19/M24 A3035 RMK AO2 SNB48 SLP285 P0000 T11891244
Conditions at: KBTV (BURLINGTON , VT, US) observed 1854 UTC 19 January 2019
Temperature: -18.9°C (-2°F)
Dewpoint: -24.4°C (-12°F) [RH = 62%]
Pressure (altimeter): 30.35 inches Hg (1027.9 mb)
[Sea-level pressure: 1028.5 mb]
Winds: from the NW (320 degrees) at 12 MPH (10 knots; 5.1 m/s)
Visibility: 4 miles ( 6 km)
Ceiling: 3200 feet AGL
Clouds: broken clouds at 3200 feet AGL
overcast cloud deck at 4600 feet AGL
Weather: -SN  (light snow)

METAR text: KBTV 191754Z 32010KT 10SM BKN070 OVC085 M18/M24 A3036 RMK AO2 SLP289 4/003 T11831239 11167 21183 58028
Conditions at: KBTV (BURLINGTON , VT, US) observed 1754 UTC 19 January 2019
Temperature: -18.3°C (-1°F)
Dewpoint: -23.9°C (-11°F) [RH = 61%]
Pressure (altimeter): 30.36 inches Hg (1028.2 mb)
[Sea-level pressure: 1028.9 mb]
Winds: from the NW (320 degrees) at 12 MPH (10 knots; 5.1 m/s)
Visibility: 10 or more miles (16+ km)
Ceiling: 7000 feet AGL
Clouds: broken clouds at 7000 feet AGL
overcast cloud deck at 8500 feet AGL
Weather: no significant weather observed at this time

METAR text: KBTV 191654Z 32009KT 10SM FEW060 BKN090 M18/M23 A3040 RMK AO2 SLP302 T11781233
Conditions at: KBTV (BURLINGTON , VT, US) observed 1654 UTC 19 January 2019
Temperature: -17.8°C (-0°F)
Dewpoint: -23.3°C (-10°F) [RH = 62%]
Pressure (altimeter): 30.40 inches Hg (1029.5 mb)
[Sea-level pressure: 1030.2 mb]
Winds: from the NW (320 degrees) at 10 MPH (9 knots; 4.6 m/s)
Visibility: 10 or more miles (16+ km)
Ceiling: 9000 feet AGL
Clouds: few clouds at 6000 feet AGL
broken clouds at 9000 feet AGL
Weather: no significant weather observed at this time

METAR text: KBTV 191554Z 32011KT 10SM FEW060 BKN100 M18/M23 A3044 RMK AO2 SLP317 T11781233
Conditions at: KBTV (BURLINGTON , VT, US) observed 1554 UTC 19 January 2019
Temperature: -17.8°C (-0°F)
Dewpoint: -23.3°C (-10°F) [RH = 62%]
Pressure (altimeter): 30.44 inches Hg (1030.9 mb)
[Sea-level pressure: 1031.7 mb]
Winds: from the NW (320 degrees) at 13 MPH (11 knots; 5.7 m/s)
Visibility: 10 or more miles (16+ km)
Ceiling: 10000 feet AGL
Clouds: few clouds at 6000 feet AGL
broken clouds at 10000 feet AGL
Weather: no significant weather observed at this time

METAR text: KBTV 191454Z 36008KT 10SM FEW060 BKN110 M17/M24 A3044 RMK AO2 SLP317 T11721239 51023
Conditions at: KBTV (BURLINGTON , VT, US) observed 1454 UTC 19 January 2019
Temperature: -17.2°C ( 1°F)
Dewpoint: -23.9°C (-11°F) [RH = 56%]
Pressure (altimeter): 30.44 inches Hg (1030.9 mb)
[Sea-level pressure: 1031.7 mb]
Winds: from the N (360 degrees) at 9 MPH (8 knots; 4.1 m/s)
Visibility: 10 or more miles (16+ km)
Ceiling: 11000 feet AGL
Clouds: few clouds at 6000 feet AGL
broken clouds at 11000 feet AGL
Weather: no significant weather observed at this time

METAR text: KBTV 191354Z 35008KT 10SM FEW060 FEW090 BKN110 M17/M24 A3043 RMK AO2 SLP311 T11721239
Conditions at: KBTV (BURLINGTON , VT, US) observed 1354 UTC 19 January 2019
Temperature: -17.2°C ( 1°F)
Dewpoint: -23.9°C (-11°F) [RH = 56%]
Pressure (altimeter): 30.43 inches Hg (1030.6 mb)
[Sea-level pressure: 1031.1 mb]
Winds: from the N (350 degrees) at 9 MPH (8 knots; 4.1 m/s)
Visibility: 10 or more miles (16+ km)
Ceiling: 11000 feet AGL
Clouds: few clouds at 6000 feet AGL
few clouds at 9000 feet AGL
broken clouds at 11000 feet AGL
Weather: no significant weather observed at this time

METAR text: KBTV 191254Z 35010KT 10SM FEW060 FEW090 BKN150 M17/M23 A3040 RMK AO2 SLP304 T11721228
Conditions at: KBTV (BURLINGTON , VT, US) observed 1254 UTC 19 January 2019
Temperature: -17.2°C ( 1°F)
Dewpoint: -22.8°C (-9°F) [RH = 62%]
Pressure (altimeter): 30.40 inches Hg (1029.5 mb)
[Sea-level pressure: 1030.4 mb]
Winds: from the N (350 degrees) at 12 MPH (10 knots; 5.1 m/s)
Visibility: 10 or more miles (16+ km)
Ceiling: 15000 feet AGL
Clouds: few clouds at 6000 feet AGL
few clouds at 9000 feet AGL
broken clouds at 15000 feet AGL
Weather: no significant weather observed at this time

METAR text: KBTV 191154Z 34008KT 10SM FEW060 FEW150 M17/M22 A3037 RMK AO2 SLP292 4/003 60000 70002 T11671222 11094 21167 53025
Conditions at: KBTV (BURLINGTON , VT, US) observed 1154 UTC 19 January 2019
Temperature: -16.7°C ( 2°F)
Dewpoint: -22.2°C (-8°F) [RH = 62%]
Pressure (altimeter): 30.37 inches Hg (1028.5 mb)
[Sea-level pressure: 1029.2 mb]
Winds: from the NNW (340 degrees) at 9 MPH (8 knots; 4.1 m/s)
Visibility: 10 or more miles (16+ km)
Ceiling: at least 12,000 feet AGL
Clouds: few clouds at 6000 feet AGL
few clouds at 15000 feet AGL
Weather: no significant weather observed at this time

Forecast for: KBTV (BURLINGTON , VT, US)
Text: KBTV 202331Z 2100/2124 34015G25KT P6SM SCT035 BKN060
Forecast period: 0000 to 0800 UTC 21 January 2019
Forecast type: FROM: standard forecast or significant change
Winds: from the NNW (340 degrees) at 17 MPH (15 knots; 7.7 m/s)
gusting to 29 MPH (25 knots; 12.9 m/s)
Visibility: 6 or more miles 10+ km)
Ceiling: 6000 feet AGL
Clouds: scattered clouds at 3500 feet AGL
broken clouds at 6000 feet AGL
Weather: no significant weather forecast for this period
Text: TEMPO 2100/2104 3SM BLSN SCT025 BKN035
Forecast period: 0000 to 0400 UTC 21 January 2019
Forecast type: TEMPORARY: The following changes expected for less than half the time period
Visibility: 3 miles (5 km)
Ceiling: 3500 feet AGL
Clouds: scattered clouds at 2500 feet AGL
broken clouds at 3500 feet AGL
Weather: BLSN  (blowing snow)
Text: FM210800 32013G22KT 2SM -SHSN BLSN BKN035 OVC060
Forecast period: 0800 to 1700 UTC 21 January 2019
Forecast type: FROM: standard forecast or significant change
Winds: from the NW (320 degrees) at 15 MPH (13 knots; 6.7 m/s)
gusting to 25 MPH (22 knots; 11.3 m/s)
Visibility: 2.00 miles (3.22 km)
Ceiling: 3500 feet AGL
Clouds: broken clouds at 3500 feet AGL
overcast cloud deck at 6000 feet AGL
Weather: -SHSN BLSN  (light snow showers, blowing snow)
Text: FM211700 32016G25KT P6SM VCSH OVC050
Forecast period: 1700 UTC 21 January 2019 to 0000 UTC 22 January 2019
Forecast type: FROM: standard forecast or significant change
Winds: from the NW (320 degrees) at 18 MPH (16 knots; 8.2 m/s)
gusting to 29 MPH (25 knots; 12.9 m/s)
Visibility: 6 or more miles 10+ km)
Ceiling: 5000 feet AGL
Clouds: overcast cloud deck at 5000 feet AGL
Weather: VCSH  (showers in vicinity)